<?xml version="1.0" encoding="UTF-8" standalone="no" ?>
<gpx xmlns="http://www.topografix.com/GPX/1/1" xmlns:xsi="http://www.w3.org/2001/XMLSchema-instance" xsi:schemaLocation="http://www.topografix.com/GPX/1/1 http://www.topografix.com/GPX/1/1/gpx.xsd" version="1.1" creator="VisuGPX - https://www.visugpx.com">
  <metadata>
    <name>Chamonix/Zermatt - Etape5 - Cabane des Dix / Cabane des Vignettes</name>
    <desc><![CDATA[Chamonix/Zermatt - Etape5 - Cabane des Dix / Cabane des Vignettes]]></desc>
  </metadata>
  <trk>
    <name><![CDATA[ETAPE5-10 19:31:04]]></name>
    <trkseg>
      <trkpt lat="46.0112" lon="7.41743">
        <ele>2961.96</ele>
        <time>2010-04-15T04:45:10Z</time>
      </trkpt>
      <trkpt lat="46.0112" lon="7.41743">
        <ele>2967.25</ele>
        <time>2010-04-15T04:45:11Z</time>
      </trkpt>
      <trkpt lat="46.0112" lon="7.41743">
        <ele>2965.8</ele>
        <time>2010-04-15T04:45:14Z</time>
      </trkpt>
      <trkpt lat="46.0112" lon="7.41743">
        <ele>2966.29</ele>
        <time>2010-04-15T04:45:16Z</time>
      </trkpt>
      <trkpt lat="46.0112" lon="7.41743">
        <ele>2966.29</ele>
        <time>2010-04-15T04:45:18Z</time>
      </trkpt>
      <trkpt lat="46.0112" lon="7.41743">
        <ele>2967.25</ele>
        <time>2010-04-15T04:45:20Z</time>
      </trkpt>
      <trkpt lat="46.01018" lon="7.41666">
        <ele>2967.73</ele>
        <time>2010-04-15T04:45:25Z</time>
      </trkpt>
      <trkpt lat="46.01016" lon="7.41679">
        <ele>2968.21</ele>
        <time>2010-04-15T04:45:32Z</time>
      </trkpt>
      <trkpt lat="46.01018" lon="7.41687">
        <ele>2968.69</ele>
        <time>2010-04-15T04:45:38Z</time>
      </trkpt>
      <trkpt lat="46.01018" lon="7.41687">
        <ele>2969.65</ele>
        <time>2010-04-15T04:45:39Z</time>
      </trkpt>
      <trkpt lat="46.0102" lon="7.41687">
        <ele>2971.57</ele>
        <time>2010-04-15T04:45:41Z</time>
      </trkpt>
      <trkpt lat="46.01074" lon="7.41717">
        <ele>2969.17</ele>
        <time>2010-04-15T04:46:04Z</time>
      </trkpt>
      <trkpt lat="46.01076" lon="7.41718">
        <ele>2967.25</ele>
        <time>2010-04-15T04:46:07Z</time>
      </trkpt>
      <trkpt lat="46.01077" lon="7.41722">
        <ele>2964.36</ele>
        <time>2010-04-15T04:46:15Z</time>
      </trkpt>
      <trkpt lat="46.01077" lon="7.41722">
        <ele>2962.92</ele>
        <time>2010-04-15T04:46:17Z</time>
      </trkpt>
      <trkpt lat="46.01083" lon="7.41728">
        <ele>2960.52</ele>
        <time>2010-04-15T04:46:23Z</time>
      </trkpt>
      <trkpt lat="46.01081" lon="7.41728">
        <ele>2959.08</ele>
        <time>2010-04-15T04:46:27Z</time>
      </trkpt>
      <trkpt lat="46.01081" lon="7.41726">
        <ele>2958.11</ele>
        <time>2010-04-15T04:46:31Z</time>
      </trkpt>
      <trkpt lat="46.01084" lon="7.41731">
        <ele>2954.75</ele>
        <time>2010-04-15T04:46:38Z</time>
      </trkpt>
      <trkpt lat="46.01084" lon="7.41731">
        <ele>2951.38</ele>
        <time>2010-04-15T04:46:51Z</time>
      </trkpt>
      <trkpt lat="46.01087" lon="7.41735">
        <ele>2948.02</ele>
        <time>2010-04-15T04:47:10Z</time>
      </trkpt>
      <trkpt lat="46.01087" lon="7.41735">
        <ele>2948.02</ele>
        <time>2010-04-15T04:47:11Z</time>
      </trkpt>
      <trkpt lat="46.01087" lon="7.41735">
        <ele>2944.66</ele>
        <time>2010-04-15T04:48:07Z</time>
      </trkpt>
      <trkpt lat="46.01091" lon="7.41741">
        <ele>2945.62</ele>
        <time>2010-04-15T04:51:13Z</time>
      </trkpt>
      <trkpt lat="46.01094" lon="7.41743">
        <ele>2942.25</ele>
        <time>2010-04-15T04:53:32Z</time>
      </trkpt>
      <trkpt lat="46.01094" lon="7.41743">
        <ele>2945.14</ele>
        <time>2010-04-15T04:53:39Z</time>
      </trkpt>
      <trkpt lat="46.01095" lon="7.41743">
        <ele>2945.14</ele>
        <time>2010-04-15T04:53:40Z</time>
      </trkpt>
      <trkpt lat="46.01095" lon="7.41743">
        <ele>2944.66</ele>
        <time>2010-04-15T04:53:50Z</time>
      </trkpt>
      <trkpt lat="46.01095" lon="7.41746">
        <ele>2941.77</ele>
        <time>2010-04-15T05:00:56Z</time>
      </trkpt>
      <trkpt lat="46.01097" lon="7.41744">
        <ele>2942.73</ele>
        <time>2010-04-15T05:07:19Z</time>
      </trkpt>
      <trkpt lat="46.011" lon="7.41746">
        <ele>2942.25</ele>
        <time>2010-04-15T05:12:01Z</time>
      </trkpt>
      <trkpt lat="46.01103" lon="7.41741">
        <ele>2940.81</ele>
        <time>2010-04-15T05:12:12Z</time>
      </trkpt>
      <trkpt lat="46.01104" lon="7.41741">
        <ele>2941.77</ele>
        <time>2010-04-15T05:14:09Z</time>
      </trkpt>
      <trkpt lat="46.01104" lon="7.41742">
        <ele>2941.77</ele>
        <time>2010-04-15T05:14:28Z</time>
      </trkpt>
      <trkpt lat="46.01104" lon="7.41742">
        <ele>2941.77</ele>
        <time>2010-04-15T05:14:47Z</time>
      </trkpt>
      <trkpt lat="46.01103" lon="7.41743">
        <ele>2941.77</ele>
        <time>2010-04-15T05:14:54Z</time>
      </trkpt>
      <trkpt lat="46.01099" lon="7.41742">
        <ele>2940.81</ele>
        <time>2010-04-15T05:14:56Z</time>
      </trkpt>
      <trkpt lat="46.01098" lon="7.41734">
        <ele>2939.85</ele>
        <time>2010-04-15T05:15:00Z</time>
      </trkpt>
      <trkpt lat="46.01097" lon="7.41732">
        <ele>2939.85</ele>
        <time>2010-04-15T05:15:01Z</time>
      </trkpt>
      <trkpt lat="46.01094" lon="7.41712">
        <ele>2936.48</ele>
        <time>2010-04-15T05:15:07Z</time>
      </trkpt>
      <trkpt lat="46.01093" lon="7.41708">
        <ele>2936</ele>
        <time>2010-04-15T05:15:08Z</time>
      </trkpt>
      <trkpt lat="46.01093" lon="7.41703">
        <ele>2935.04</ele>
        <time>2010-04-15T05:15:10Z</time>
      </trkpt>
      <trkpt lat="46.01087" lon="7.41692">
        <ele>2931.2</ele>
        <time>2010-04-15T05:15:13Z</time>
      </trkpt>
      <trkpt lat="46.01075" lon="7.41695">
        <ele>2929.27</ele>
        <time>2010-04-15T05:15:16Z</time>
      </trkpt>
      <trkpt lat="46.01071" lon="7.41695">
        <ele>2928.79</ele>
        <time>2010-04-15T05:15:17Z</time>
      </trkpt>
      <trkpt lat="46.01065" lon="7.41695">
        <ele>2927.83</ele>
        <time>2010-04-15T05:15:19Z</time>
      </trkpt>
      <trkpt lat="46.01062" lon="7.41697">
        <ele>2926.39</ele>
        <time>2010-04-15T05:15:29Z</time>
      </trkpt>
      <trkpt lat="46.01062" lon="7.41697">
        <ele>2927.35</ele>
        <time>2010-04-15T05:15:42Z</time>
      </trkpt>
      <trkpt lat="46.01062" lon="7.41697">
        <ele>2927.35</ele>
        <time>2010-04-15T05:15:59Z</time>
      </trkpt>
      <trkpt lat="46.01062" lon="7.41697">
        <ele>2926.39</ele>
        <time>2010-04-15T05:16:11Z</time>
      </trkpt>
      <trkpt lat="46.01062" lon="7.41697">
        <ele>2927.35</ele>
        <time>2010-04-15T05:16:28Z</time>
      </trkpt>
      <trkpt lat="46.01059" lon="7.41698">
        <ele>2926.87</ele>
        <time>2010-04-15T05:16:51Z</time>
      </trkpt>
      <trkpt lat="46.01019" lon="7.41671">
        <ele>2923.51</ele>
        <time>2010-04-15T05:17:05Z</time>
      </trkpt>
      <trkpt lat="46.00986" lon="7.41644">
        <ele>2919.18</ele>
        <time>2010-04-15T05:17:14Z</time>
      </trkpt>
      <trkpt lat="46.00972" lon="7.41636">
        <ele>2915.82</ele>
        <time>2010-04-15T05:17:17Z</time>
      </trkpt>
      <trkpt lat="46.00955" lon="7.41633">
        <ele>2911.97</ele>
        <time>2010-04-15T05:17:20Z</time>
      </trkpt>
      <trkpt lat="46.00946" lon="7.41629">
        <ele>2910.53</ele>
        <time>2010-04-15T05:17:22Z</time>
      </trkpt>
      <trkpt lat="46.0093" lon="7.41625">
        <ele>2908.13</ele>
        <time>2010-04-15T05:17:26Z</time>
      </trkpt>
      <trkpt lat="46.00922" lon="7.41622">
        <ele>2907.65</ele>
        <time>2010-04-15T05:17:28Z</time>
      </trkpt>
      <trkpt lat="46.00903" lon="7.41623">
        <ele>2902.36</ele>
        <time>2010-04-15T05:17:32Z</time>
      </trkpt>
      <trkpt lat="46.00899" lon="7.41623">
        <ele>2901.88</ele>
        <time>2010-04-15T05:17:33Z</time>
      </trkpt>
      <trkpt lat="46.00894" lon="7.41631">
        <ele>2897.55</ele>
        <time>2010-04-15T05:17:36Z</time>
      </trkpt>
      <trkpt lat="46.00894" lon="7.41637">
        <ele>2894.19</ele>
        <time>2010-04-15T05:17:39Z</time>
      </trkpt>
      <trkpt lat="46.00889" lon="7.41641">
        <ele>2892.74</ele>
        <time>2010-04-15T05:17:42Z</time>
      </trkpt>
      <trkpt lat="46.00891" lon="7.41648">
        <ele>2888.9</ele>
        <time>2010-04-15T05:17:44Z</time>
      </trkpt>
      <trkpt lat="46.00893" lon="7.41657">
        <ele>2886.02</ele>
        <time>2010-04-15T05:17:47Z</time>
      </trkpt>
      <trkpt lat="46.00887" lon="7.41662">
        <ele>2882.65</ele>
        <time>2010-04-15T05:17:50Z</time>
      </trkpt>
      <trkpt lat="46.00887" lon="7.41668">
        <ele>2880.25</ele>
        <time>2010-04-15T05:17:52Z</time>
      </trkpt>
      <trkpt lat="46.00886" lon="7.41681">
        <ele>2875.92</ele>
        <time>2010-04-15T05:17:57Z</time>
      </trkpt>
      <trkpt lat="46.00882" lon="7.41687">
        <ele>2873.04</ele>
        <time>2010-04-15T05:18:00Z</time>
      </trkpt>
      <trkpt lat="46.0088" lon="7.41689">
        <ele>2871.6</ele>
        <time>2010-04-15T05:18:01Z</time>
      </trkpt>
      <trkpt lat="46.00856" lon="7.41682">
        <ele>2867.75</ele>
        <time>2010-04-15T05:18:07Z</time>
      </trkpt>
      <trkpt lat="46.00845" lon="7.41676">
        <ele>2865.83</ele>
        <time>2010-04-15T05:18:09Z</time>
      </trkpt>
      <trkpt lat="46.00827" lon="7.41682">
        <ele>2861.02</ele>
        <time>2010-04-15T05:18:13Z</time>
      </trkpt>
      <trkpt lat="46.00823" lon="7.41705">
        <ele>2858.62</ele>
        <time>2010-04-15T05:18:15Z</time>
      </trkpt>
      <trkpt lat="46.00821" lon="7.41714">
        <ele>2857.18</ele>
        <time>2010-04-15T05:18:16Z</time>
      </trkpt>
      <trkpt lat="46.0082" lon="7.4176">
        <ele>2854.29</ele>
        <time>2010-04-15T05:18:21Z</time>
      </trkpt>
      <trkpt lat="46.0082" lon="7.4177">
        <ele>2853.33</ele>
        <time>2010-04-15T05:18:22Z</time>
      </trkpt>
      <trkpt lat="46.00825" lon="7.41804">
        <ele>2853.33</ele>
        <time>2010-04-15T05:18:30Z</time>
      </trkpt>
      <trkpt lat="46.00825" lon="7.41804">
        <ele>2853.33</ele>
        <time>2010-04-15T05:18:52Z</time>
      </trkpt>
      <trkpt lat="46.00826" lon="7.41804">
        <ele>2853.33</ele>
        <time>2010-04-15T05:19:00Z</time>
      </trkpt>
      <trkpt lat="46.00827" lon="7.41805">
        <ele>2851.89</ele>
        <time>2010-04-15T05:19:24Z</time>
      </trkpt>
      <trkpt lat="46.00826" lon="7.41805">
        <ele>2846.6</ele>
        <time>2010-04-15T05:20:28Z</time>
      </trkpt>
      <trkpt lat="46.00826" lon="7.41805">
        <ele>2852.85</ele>
        <time>2010-04-15T05:20:29Z</time>
      </trkpt>
      <trkpt lat="46.00827" lon="7.41805">
        <ele>2850.45</ele>
        <time>2010-04-15T05:20:34Z</time>
      </trkpt>
      <trkpt lat="46.00826" lon="7.41806">
        <ele>2845.64</ele>
        <time>2010-04-15T05:26:15Z</time>
      </trkpt>
      <trkpt lat="46.00826" lon="7.41806">
        <ele>2847.08</ele>
        <time>2010-04-15T05:26:16Z</time>
      </trkpt>
      <trkpt lat="46.00826" lon="7.41806">
        <ele>2855.73</ele>
        <time>2010-04-15T05:26:17Z</time>
      </trkpt>
      <trkpt lat="46.00826" lon="7.41806">
        <ele>2849.97</ele>
        <time>2010-04-15T05:26:18Z</time>
      </trkpt>
      <trkpt lat="46.00826" lon="7.41806">
        <ele>2849</ele>
        <time>2010-04-15T05:26:38Z</time>
      </trkpt>
      <trkpt lat="46.00827" lon="7.41807">
        <ele>2848.52</ele>
        <time>2010-04-15T05:27:30Z</time>
      </trkpt>
      <trkpt lat="46.00826" lon="7.41805">
        <ele>2849.97</ele>
        <time>2010-04-15T05:27:41Z</time>
      </trkpt>
      <trkpt lat="46.00826" lon="7.41805">
        <ele>2849</ele>
        <time>2010-04-15T05:27:56Z</time>
      </trkpt>
      <trkpt lat="46.00826" lon="7.4181">
        <ele>2849.48</ele>
        <time>2010-04-15T05:28:10Z</time>
      </trkpt>
      <trkpt lat="46.00826" lon="7.41814">
        <ele>2850.45</ele>
        <time>2010-04-15T05:28:31Z</time>
      </trkpt>
      <trkpt lat="46.00829" lon="7.41823">
        <ele>2850.93</ele>
        <time>2010-04-15T05:28:43Z</time>
      </trkpt>
      <trkpt lat="46.00833" lon="7.41835">
        <ele>2853.33</ele>
        <time>2010-04-15T05:28:58Z</time>
      </trkpt>
      <trkpt lat="46.00837" lon="7.41844">
        <ele>2853.81</ele>
        <time>2010-04-15T05:29:11Z</time>
      </trkpt>
      <trkpt lat="46.00839" lon="7.41852">
        <ele>2855.73</ele>
        <time>2010-04-15T05:29:24Z</time>
      </trkpt>
      <trkpt lat="46.00841" lon="7.41863">
        <ele>2856.69</ele>
        <time>2010-04-15T05:29:39Z</time>
      </trkpt>
      <trkpt lat="46.0084" lon="7.41871">
        <ele>2857.18</ele>
        <time>2010-04-15T05:29:51Z</time>
      </trkpt>
      <trkpt lat="46.00836" lon="7.41874">
        <ele>2858.14</ele>
        <time>2010-04-15T05:29:58Z</time>
      </trkpt>
      <trkpt lat="46.00826" lon="7.41878">
        <ele>2858.14</ele>
        <time>2010-04-15T05:30:12Z</time>
      </trkpt>
      <trkpt lat="46.00816" lon="7.41885">
        <ele>2856.21</ele>
        <time>2010-04-15T05:30:19Z</time>
      </trkpt>
      <trkpt lat="46.00811" lon="7.41887">
        <ele>2854.77</ele>
        <time>2010-04-15T05:30:24Z</time>
      </trkpt>
      <trkpt lat="46.008" lon="7.41893">
        <ele>2854.29</ele>
        <time>2010-04-15T05:30:37Z</time>
      </trkpt>
      <trkpt lat="46.00796" lon="7.41896">
        <ele>2854.29</ele>
        <time>2010-04-15T05:30:41Z</time>
      </trkpt>
      <trkpt lat="46.00784" lon="7.41903">
        <ele>2852.37</ele>
        <time>2010-04-15T05:30:52Z</time>
      </trkpt>
      <trkpt lat="46.00776" lon="7.4191">
        <ele>2851.41</ele>
        <time>2010-04-15T05:31:02Z</time>
      </trkpt>
      <trkpt lat="46.0077" lon="7.41918">
        <ele>2850.93</ele>
        <time>2010-04-15T05:31:15Z</time>
      </trkpt>
      <trkpt lat="46.00765" lon="7.41924">
        <ele>2851.41</ele>
        <time>2010-04-15T05:31:23Z</time>
      </trkpt>
      <trkpt lat="46.00758" lon="7.41936">
        <ele>2851.89</ele>
        <time>2010-04-15T05:31:37Z</time>
      </trkpt>
      <trkpt lat="46.00751" lon="7.41946">
        <ele>2851.89</ele>
        <time>2010-04-15T05:31:48Z</time>
      </trkpt>
      <trkpt lat="46.00743" lon="7.41959">
        <ele>2852.85</ele>
        <time>2010-04-15T05:32:03Z</time>
      </trkpt>
      <trkpt lat="46.00736" lon="7.4197">
        <ele>2852.85</ele>
        <time>2010-04-15T05:32:17Z</time>
      </trkpt>
      <trkpt lat="46.00732" lon="7.41978">
        <ele>2853.81</ele>
        <time>2010-04-15T05:32:28Z</time>
      </trkpt>
      <trkpt lat="46.0073" lon="7.41982">
        <ele>2853.81</ele>
        <time>2010-04-15T05:32:32Z</time>
      </trkpt>
      <trkpt lat="46.00729" lon="7.41985">
        <ele>2854.29</ele>
        <time>2010-04-15T05:32:45Z</time>
      </trkpt>
      <trkpt lat="46.00725" lon="7.41991">
        <ele>2854.29</ele>
        <time>2010-04-15T05:32:56Z</time>
      </trkpt>
      <trkpt lat="46.00718" lon="7.42006">
        <ele>2854.77</ele>
        <time>2010-04-15T05:33:09Z</time>
      </trkpt>
      <trkpt lat="46.00713" lon="7.42016">
        <ele>2857.18</ele>
        <time>2010-04-15T05:33:22Z</time>
      </trkpt>
      <trkpt lat="46.00707" lon="7.42026">
        <ele>2858.14</ele>
        <time>2010-04-15T05:33:37Z</time>
      </trkpt>
      <trkpt lat="46.00702" lon="7.42037">
        <ele>2860.54</ele>
        <time>2010-04-15T05:33:52Z</time>
      </trkpt>
      <trkpt lat="46.00695" lon="7.42048">
        <ele>2861.5</ele>
        <time>2010-04-15T05:34:08Z</time>
      </trkpt>
      <trkpt lat="46.00689" lon="7.42059">
        <ele>2863.42</ele>
        <time>2010-04-15T05:34:23Z</time>
      </trkpt>
      <trkpt lat="46.00681" lon="7.42073">
        <ele>2863.9</ele>
        <time>2010-04-15T05:34:39Z</time>
      </trkpt>
      <trkpt lat="46.00675" lon="7.42082">
        <ele>2863.9</ele>
        <time>2010-04-15T05:34:52Z</time>
      </trkpt>
      <trkpt lat="46.00669" lon="7.42092">
        <ele>2863.42</ele>
        <time>2010-04-15T05:35:02Z</time>
      </trkpt>
      <trkpt lat="46.00661" lon="7.42107">
        <ele>2861.02</ele>
        <time>2010-04-15T05:35:08Z</time>
      </trkpt>
      <trkpt lat="46.00652" lon="7.42125">
        <ele>2857.66</ele>
        <time>2010-04-15T05:35:12Z</time>
      </trkpt>
      <trkpt lat="46.00646" lon="7.42134">
        <ele>2858.14</ele>
        <time>2010-04-15T05:35:23Z</time>
      </trkpt>
      <trkpt lat="46.00642" lon="7.42141">
        <ele>2858.62</ele>
        <time>2010-04-15T05:35:31Z</time>
      </trkpt>
      <trkpt lat="46.00636" lon="7.42154">
        <ele>2858.14</ele>
        <time>2010-04-15T05:35:43Z</time>
      </trkpt>
      <trkpt lat="46.00632" lon="7.42164">
        <ele>2858.62</ele>
        <time>2010-04-15T05:35:51Z</time>
      </trkpt>
      <trkpt lat="46.00625" lon="7.42176">
        <ele>2857.18</ele>
        <time>2010-04-15T05:36:01Z</time>
      </trkpt>
      <trkpt lat="46.00615" lon="7.42191">
        <ele>2856.69</ele>
        <time>2010-04-15T05:36:16Z</time>
      </trkpt>
      <trkpt lat="46.00613" lon="7.42196">
        <ele>2856.69</ele>
        <time>2010-04-15T05:36:21Z</time>
      </trkpt>
      <trkpt lat="46.00608" lon="7.42202">
        <ele>2856.21</ele>
        <time>2010-04-15T05:36:29Z</time>
      </trkpt>
      <trkpt lat="46.00601" lon="7.42215">
        <ele>2858.62</ele>
        <time>2010-04-15T05:36:44Z</time>
      </trkpt>
      <trkpt lat="46.00595" lon="7.42224">
        <ele>2860.06</ele>
        <time>2010-04-15T05:36:58Z</time>
      </trkpt>
      <trkpt lat="46.00588" lon="7.42235">
        <ele>2860.54</ele>
        <time>2010-04-15T05:37:13Z</time>
      </trkpt>
      <trkpt lat="46.00581" lon="7.42247">
        <ele>2862.46</ele>
        <time>2010-04-15T05:37:29Z</time>
      </trkpt>
      <trkpt lat="46.00574" lon="7.42258">
        <ele>2862.94</ele>
        <time>2010-04-15T05:37:44Z</time>
      </trkpt>
      <trkpt lat="46.00567" lon="7.42269">
        <ele>2863.9</ele>
        <time>2010-04-15T05:37:59Z</time>
      </trkpt>
      <trkpt lat="46.00561" lon="7.4228">
        <ele>2865.83</ele>
        <time>2010-04-15T05:38:13Z</time>
      </trkpt>
      <trkpt lat="46.00557" lon="7.42286">
        <ele>2866.31</ele>
        <time>2010-04-15T05:38:19Z</time>
      </trkpt>
      <trkpt lat="46.00553" lon="7.42293">
        <ele>2866.79</ele>
        <time>2010-04-15T05:38:30Z</time>
      </trkpt>
      <trkpt lat="46.00546" lon="7.42302">
        <ele>2866.79</ele>
        <time>2010-04-15T05:38:45Z</time>
      </trkpt>
      <trkpt lat="46.00542" lon="7.42309">
        <ele>2866.79</ele>
        <time>2010-04-15T05:38:53Z</time>
      </trkpt>
      <trkpt lat="46.00537" lon="7.42315">
        <ele>2867.27</ele>
        <time>2010-04-15T05:39:01Z</time>
      </trkpt>
      <trkpt lat="46.0053" lon="7.42326">
        <ele>2867.27</ele>
        <time>2010-04-15T05:39:13Z</time>
      </trkpt>
      <trkpt lat="46.00521" lon="7.42337">
        <ele>2868.23</ele>
        <time>2010-04-15T05:39:29Z</time>
      </trkpt>
      <trkpt lat="46.00519" lon="7.42341">
        <ele>2868.23</ele>
        <time>2010-04-15T05:39:33Z</time>
      </trkpt>
      <trkpt lat="46.0051" lon="7.42355">
        <ele>2869.19</ele>
        <time>2010-04-15T05:39:50Z</time>
      </trkpt>
      <trkpt lat="46.00503" lon="7.42366">
        <ele>2869.19</ele>
        <time>2010-04-15T05:40:04Z</time>
      </trkpt>
      <trkpt lat="46.00496" lon="7.42375">
        <ele>2871.6</ele>
        <time>2010-04-15T05:40:17Z</time>
      </trkpt>
      <trkpt lat="46.0049" lon="7.42384">
        <ele>2871.11</ele>
        <time>2010-04-15T05:40:29Z</time>
      </trkpt>
      <trkpt lat="46.00484" lon="7.42395">
        <ele>2872.56</ele>
        <time>2010-04-15T05:40:41Z</time>
      </trkpt>
      <trkpt lat="46.00478" lon="7.42404">
        <ele>2872.56</ele>
        <time>2010-04-15T05:40:54Z</time>
      </trkpt>
      <trkpt lat="46.00471" lon="7.42415">
        <ele>2874</ele>
        <time>2010-04-15T05:41:09Z</time>
      </trkpt>
      <trkpt lat="46.00464" lon="7.42425">
        <ele>2874</ele>
        <time>2010-04-15T05:41:22Z</time>
      </trkpt>
      <trkpt lat="46.00456" lon="7.42434">
        <ele>2874.96</ele>
        <time>2010-04-15T05:41:36Z</time>
      </trkpt>
      <trkpt lat="46.00448" lon="7.42444">
        <ele>2875.92</ele>
        <time>2010-04-15T05:41:50Z</time>
      </trkpt>
      <trkpt lat="46.00441" lon="7.42455">
        <ele>2876.88</ele>
        <time>2010-04-15T05:42:05Z</time>
      </trkpt>
      <trkpt lat="46.00436" lon="7.42464">
        <ele>2877.84</ele>
        <time>2010-04-15T05:42:17Z</time>
      </trkpt>
      <trkpt lat="46.00429" lon="7.42472">
        <ele>2878.81</ele>
        <time>2010-04-15T05:42:29Z</time>
      </trkpt>
      <trkpt lat="46.00421" lon="7.42484">
        <ele>2878.81</ele>
        <time>2010-04-15T05:42:43Z</time>
      </trkpt>
      <trkpt lat="46.00421" lon="7.42485">
        <ele>2878.81</ele>
        <time>2010-04-15T05:42:44Z</time>
      </trkpt>
      <trkpt lat="46.00412" lon="7.42493">
        <ele>2879.77</ele>
        <time>2010-04-15T05:42:58Z</time>
      </trkpt>
      <trkpt lat="46.00402" lon="7.42503">
        <ele>2880.25</ele>
        <time>2010-04-15T05:43:13Z</time>
      </trkpt>
      <trkpt lat="46.00394" lon="7.42514">
        <ele>2879.77</ele>
        <time>2010-04-15T05:43:27Z</time>
      </trkpt>
      <trkpt lat="46.00392" lon="7.42517">
        <ele>2880.25</ele>
        <time>2010-04-15T05:43:30Z</time>
      </trkpt>
      <trkpt lat="46.00386" lon="7.42527">
        <ele>2881.21</ele>
        <time>2010-04-15T05:43:41Z</time>
      </trkpt>
      <trkpt lat="46.00377" lon="7.4254">
        <ele>2881.21</ele>
        <time>2010-04-15T05:43:56Z</time>
      </trkpt>
      <trkpt lat="46.00371" lon="7.42551">
        <ele>2881.69</ele>
        <time>2010-04-15T05:44:10Z</time>
      </trkpt>
      <trkpt lat="46.00363" lon="7.42565">
        <ele>2882.65</ele>
        <time>2010-04-15T05:44:28Z</time>
      </trkpt>
      <trkpt lat="46.00357" lon="7.42577">
        <ele>2881.69</ele>
        <time>2010-04-15T05:44:40Z</time>
      </trkpt>
      <trkpt lat="46.0035" lon="7.42588">
        <ele>2881.21</ele>
        <time>2010-04-15T05:44:53Z</time>
      </trkpt>
      <trkpt lat="46.00343" lon="7.42601">
        <ele>2882.65</ele>
        <time>2010-04-15T05:45:08Z</time>
      </trkpt>
      <trkpt lat="46.00336" lon="7.42614">
        <ele>2883.61</ele>
        <time>2010-04-15T05:45:22Z</time>
      </trkpt>
      <trkpt lat="46.00332" lon="7.42621">
        <ele>2883.61</ele>
        <time>2010-04-15T05:45:31Z</time>
      </trkpt>
      <trkpt lat="46.00331" lon="7.42623">
        <ele>2885.05</ele>
        <time>2010-04-15T05:45:33Z</time>
      </trkpt>
      <trkpt lat="46.00329" lon="7.42627">
        <ele>2885.05</ele>
        <time>2010-04-15T05:45:38Z</time>
      </trkpt>
      <trkpt lat="46.00322" lon="7.42639">
        <ele>2886.02</ele>
        <time>2010-04-15T05:45:53Z</time>
      </trkpt>
      <trkpt lat="46.00315" lon="7.42648">
        <ele>2887.94</ele>
        <time>2010-04-15T05:46:05Z</time>
      </trkpt>
      <trkpt lat="46.0031" lon="7.42658">
        <ele>2887.94</ele>
        <time>2010-04-15T05:46:18Z</time>
      </trkpt>
      <trkpt lat="46.00303" lon="7.4267">
        <ele>2889.86</ele>
        <time>2010-04-15T05:46:37Z</time>
      </trkpt>
      <trkpt lat="46.003" lon="7.42675">
        <ele>2892.26</ele>
        <time>2010-04-15T05:46:48Z</time>
      </trkpt>
      <trkpt lat="46.00298" lon="7.42677">
        <ele>2893.23</ele>
        <time>2010-04-15T05:46:53Z</time>
      </trkpt>
      <trkpt lat="46.00292" lon="7.42684">
        <ele>2893.71</ele>
        <time>2010-04-15T05:47:09Z</time>
      </trkpt>
      <trkpt lat="46.00285" lon="7.4269">
        <ele>2895.15</ele>
        <time>2010-04-15T05:47:20Z</time>
      </trkpt>
      <trkpt lat="46.0028" lon="7.42694">
        <ele>2896.59</ele>
        <time>2010-04-15T05:47:34Z</time>
      </trkpt>
      <trkpt lat="46.00275" lon="7.42697">
        <ele>2898.51</ele>
        <time>2010-04-15T05:47:49Z</time>
      </trkpt>
      <trkpt lat="46.0027" lon="7.42703">
        <ele>2899.95</ele>
        <time>2010-04-15T05:48:01Z</time>
      </trkpt>
      <trkpt lat="46.00267" lon="7.42706">
        <ele>2901.4</ele>
        <time>2010-04-15T05:48:14Z</time>
      </trkpt>
      <trkpt lat="46.00263" lon="7.42713">
        <ele>2902.84</ele>
        <time>2010-04-15T05:48:26Z</time>
      </trkpt>
      <trkpt lat="46.00259" lon="7.42718">
        <ele>2903.32</ele>
        <time>2010-04-15T05:48:41Z</time>
      </trkpt>
      <trkpt lat="46.00256" lon="7.42724">
        <ele>2905.72</ele>
        <time>2010-04-15T05:48:52Z</time>
      </trkpt>
      <trkpt lat="46.00253" lon="7.42729">
        <ele>2907.16</ele>
        <time>2010-04-15T05:49:04Z</time>
      </trkpt>
      <trkpt lat="46.00251" lon="7.42735">
        <ele>2908.13</ele>
        <time>2010-04-15T05:49:17Z</time>
      </trkpt>
      <trkpt lat="46.00248" lon="7.42743">
        <ele>2910.53</ele>
        <time>2010-04-15T05:49:28Z</time>
      </trkpt>
      <trkpt lat="46.00244" lon="7.42749">
        <ele>2912.93</ele>
        <time>2010-04-15T05:49:42Z</time>
      </trkpt>
      <trkpt lat="46.0024" lon="7.42756">
        <ele>2913.89</ele>
        <time>2010-04-15T05:49:55Z</time>
      </trkpt>
      <trkpt lat="46.00238" lon="7.42761">
        <ele>2916.3</ele>
        <time>2010-04-15T05:50:07Z</time>
      </trkpt>
      <trkpt lat="46.00235" lon="7.42771">
        <ele>2918.22</ele>
        <time>2010-04-15T05:50:22Z</time>
      </trkpt>
      <trkpt lat="46.00232" lon="7.42778">
        <ele>2919.66</ele>
        <time>2010-04-15T05:50:33Z</time>
      </trkpt>
      <trkpt lat="46.0023" lon="7.42784">
        <ele>2920.62</ele>
        <time>2010-04-15T05:50:48Z</time>
      </trkpt>
      <trkpt lat="46.00227" lon="7.42796">
        <ele>2922.54</ele>
        <time>2010-04-15T05:51:03Z</time>
      </trkpt>
      <trkpt lat="46.00227" lon="7.42804">
        <ele>2923.51</ele>
        <time>2010-04-15T05:51:20Z</time>
      </trkpt>
      <trkpt lat="46.00225" lon="7.42813">
        <ele>2924.95</ele>
        <time>2010-04-15T05:51:31Z</time>
      </trkpt>
      <trkpt lat="46.00225" lon="7.42821">
        <ele>2927.35</ele>
        <time>2010-04-15T05:51:43Z</time>
      </trkpt>
      <trkpt lat="46.00226" lon="7.4283">
        <ele>2927.35</ele>
        <time>2010-04-15T05:51:54Z</time>
      </trkpt>
      <trkpt lat="46.00231" lon="7.42833">
        <ele>2928.79</ele>
        <time>2010-04-15T05:52:09Z</time>
      </trkpt>
      <trkpt lat="46.00233" lon="7.42838">
        <ele>2930.24</ele>
        <time>2010-04-15T05:52:19Z</time>
      </trkpt>
      <trkpt lat="46.00233" lon="7.42844">
        <ele>2931.2</ele>
        <time>2010-04-15T05:52:27Z</time>
      </trkpt>
      <trkpt lat="46.00237" lon="7.42856">
        <ele>2933.6</ele>
        <time>2010-04-15T05:52:45Z</time>
      </trkpt>
      <trkpt lat="46.00239" lon="7.42862">
        <ele>2935.04</ele>
        <time>2010-04-15T05:52:57Z</time>
      </trkpt>
      <trkpt lat="46.00241" lon="7.42867">
        <ele>2936.48</ele>
        <time>2010-04-15T05:53:10Z</time>
      </trkpt>
      <trkpt lat="46.00247" lon="7.42875">
        <ele>2937.93</ele>
        <time>2010-04-15T05:53:22Z</time>
      </trkpt>
      <trkpt lat="46.00249" lon="7.4288">
        <ele>2937.45</ele>
        <time>2010-04-15T05:53:29Z</time>
      </trkpt>
      <trkpt lat="46.00255" lon="7.42889">
        <ele>2939.37</ele>
        <time>2010-04-15T05:53:42Z</time>
      </trkpt>
      <trkpt lat="46.00259" lon="7.42896">
        <ele>2940.81</ele>
        <time>2010-04-15T05:53:52Z</time>
      </trkpt>
      <trkpt lat="46.00261" lon="7.42901">
        <ele>2941.29</ele>
        <time>2010-04-15T05:54:00Z</time>
      </trkpt>
      <trkpt lat="46.00266" lon="7.42911">
        <ele>2942.25</ele>
        <time>2010-04-15T05:54:12Z</time>
      </trkpt>
      <trkpt lat="46.00269" lon="7.42919">
        <ele>2944.17</ele>
        <time>2010-04-15T05:54:24Z</time>
      </trkpt>
      <trkpt lat="46.00272" lon="7.42927">
        <ele>2944.66</ele>
        <time>2010-04-15T05:54:36Z</time>
      </trkpt>
      <trkpt lat="46.00277" lon="7.42937">
        <ele>2945.62</ele>
        <time>2010-04-15T05:54:52Z</time>
      </trkpt>
      <trkpt lat="46.0028" lon="7.42943">
        <ele>2947.54</ele>
        <time>2010-04-15T05:55:03Z</time>
      </trkpt>
      <trkpt lat="46.00283" lon="7.42951">
        <ele>2948.98</ele>
        <time>2010-04-15T05:55:16Z</time>
      </trkpt>
      <trkpt lat="46.0029" lon="7.42959">
        <ele>2950.9</ele>
        <time>2010-04-15T05:55:29Z</time>
      </trkpt>
      <trkpt lat="46.00296" lon="7.42959">
        <ele>2951.87</ele>
        <time>2010-04-15T05:55:41Z</time>
      </trkpt>
      <trkpt lat="46.00303" lon="7.42962">
        <ele>2953.79</ele>
        <time>2010-04-15T05:55:55Z</time>
      </trkpt>
      <trkpt lat="46.00307" lon="7.42958">
        <ele>2954.75</ele>
        <time>2010-04-15T05:56:02Z</time>
      </trkpt>
      <trkpt lat="46.00312" lon="7.42943">
        <ele>2953.79</ele>
        <time>2010-04-15T05:56:13Z</time>
      </trkpt>
      <trkpt lat="46.00313" lon="7.42937">
        <ele>2953.31</ele>
        <time>2010-04-15T05:56:24Z</time>
      </trkpt>
      <trkpt lat="46.00312" lon="7.42936">
        <ele>2951.87</ele>
        <time>2010-04-15T05:56:36Z</time>
      </trkpt>
      <trkpt lat="46.00313" lon="7.42937">
        <ele>2951.87</ele>
        <time>2010-04-15T05:59:34Z</time>
      </trkpt>
      <trkpt lat="46.00314" lon="7.42935">
        <ele>2952.35</ele>
        <time>2010-04-15T06:00:06Z</time>
      </trkpt>
      <trkpt lat="46.00313" lon="7.42939">
        <ele>2953.31</ele>
        <time>2010-04-15T06:00:17Z</time>
      </trkpt>
      <trkpt lat="46.00312" lon="7.42944">
        <ele>2952.83</ele>
        <time>2010-04-15T06:00:20Z</time>
      </trkpt>
      <trkpt lat="46.00313" lon="7.42957">
        <ele>2953.79</ele>
        <time>2010-04-15T06:00:32Z</time>
      </trkpt>
      <trkpt lat="46.00314" lon="7.4297">
        <ele>2956.19</ele>
        <time>2010-04-15T06:00:44Z</time>
      </trkpt>
      <trkpt lat="46.00314" lon="7.42983">
        <ele>2957.63</ele>
        <time>2010-04-15T06:00:57Z</time>
      </trkpt>
      <trkpt lat="46.00315" lon="7.42995">
        <ele>2959.56</ele>
        <time>2010-04-15T06:01:10Z</time>
      </trkpt>
      <trkpt lat="46.00314" lon="7.43011">
        <ele>2961.96</ele>
        <time>2010-04-15T06:01:27Z</time>
      </trkpt>
      <trkpt lat="46.00313" lon="7.43018">
        <ele>2963.4</ele>
        <time>2010-04-15T06:01:39Z</time>
      </trkpt>
      <trkpt lat="46.00314" lon="7.43024">
        <ele>2964.84</ele>
        <time>2010-04-15T06:01:45Z</time>
      </trkpt>
      <trkpt lat="46.00318" lon="7.43034">
        <ele>2966.29</ele>
        <time>2010-04-15T06:01:56Z</time>
      </trkpt>
      <trkpt lat="46.00319" lon="7.43042">
        <ele>2969.17</ele>
        <time>2010-04-15T06:02:06Z</time>
      </trkpt>
      <trkpt lat="46.0032" lon="7.43052">
        <ele>2970.13</ele>
        <time>2010-04-15T06:02:19Z</time>
      </trkpt>
      <trkpt lat="46.00323" lon="7.43063">
        <ele>2972.53</ele>
        <time>2010-04-15T06:02:30Z</time>
      </trkpt>
      <trkpt lat="46.00328" lon="7.43071">
        <ele>2973.98</ele>
        <time>2010-04-15T06:02:42Z</time>
      </trkpt>
      <trkpt lat="46.0033" lon="7.43076">
        <ele>2975.42</ele>
        <time>2010-04-15T06:02:55Z</time>
      </trkpt>
      <trkpt lat="46.00333" lon="7.43082">
        <ele>2977.82</ele>
        <time>2010-04-15T06:03:06Z</time>
      </trkpt>
      <trkpt lat="46.00336" lon="7.43083">
        <ele>2979.74</ele>
        <time>2010-04-15T06:03:19Z</time>
      </trkpt>
      <trkpt lat="46.00336" lon="7.43087">
        <ele>2981.19</ele>
        <time>2010-04-15T06:03:32Z</time>
      </trkpt>
      <trkpt lat="46.00338" lon="7.43104">
        <ele>2983.11</ele>
        <time>2010-04-15T06:03:47Z</time>
      </trkpt>
      <trkpt lat="46.00338" lon="7.43112">
        <ele>2984.07</ele>
        <time>2010-04-15T06:03:59Z</time>
      </trkpt>
      <trkpt lat="46.00338" lon="7.43112">
        <ele>2986.47</ele>
        <time>2010-04-15T06:04:04Z</time>
      </trkpt>
      <trkpt lat="46.00337" lon="7.43119">
        <ele>2986.95</ele>
        <time>2010-04-15T06:04:15Z</time>
      </trkpt>
      <trkpt lat="46.00337" lon="7.43122">
        <ele>2989.36</ele>
        <time>2010-04-15T06:04:21Z</time>
      </trkpt>
      <trkpt lat="46.00342" lon="7.43133">
        <ele>2991.28</ele>
        <time>2010-04-15T06:04:35Z</time>
      </trkpt>
      <trkpt lat="46.00347" lon="7.43138">
        <ele>2992.72</ele>
        <time>2010-04-15T06:04:50Z</time>
      </trkpt>
      <trkpt lat="46.00351" lon="7.43141">
        <ele>2994.64</ele>
        <time>2010-04-15T06:04:59Z</time>
      </trkpt>
      <trkpt lat="46.00357" lon="7.43145">
        <ele>2994.64</ele>
        <time>2010-04-15T06:05:13Z</time>
      </trkpt>
      <trkpt lat="46.0036" lon="7.43146">
        <ele>2996.57</ele>
        <time>2010-04-15T06:05:17Z</time>
      </trkpt>
      <trkpt lat="46.00368" lon="7.43149">
        <ele>2997.05</ele>
        <time>2010-04-15T06:05:28Z</time>
      </trkpt>
      <trkpt lat="46.00371" lon="7.43149">
        <ele>2998.49</ele>
        <time>2010-04-15T06:05:32Z</time>
      </trkpt>
      <trkpt lat="46.00376" lon="7.4315">
        <ele>2998.97</ele>
        <time>2010-04-15T06:05:43Z</time>
      </trkpt>
      <trkpt lat="46.00381" lon="7.43154">
        <ele>3000.41</ele>
        <time>2010-04-15T06:05:57Z</time>
      </trkpt>
      <trkpt lat="46.0038" lon="7.4316">
        <ele>3001.85</ele>
        <time>2010-04-15T06:06:09Z</time>
      </trkpt>
      <trkpt lat="46.00379" lon="7.4317">
        <ele>3005.22</ele>
        <time>2010-04-15T06:06:22Z</time>
      </trkpt>
      <trkpt lat="46.00384" lon="7.43177">
        <ele>3006.18</ele>
        <time>2010-04-15T06:06:32Z</time>
      </trkpt>
      <trkpt lat="46.00385" lon="7.43178">
        <ele>3007.62</ele>
        <time>2010-04-15T06:06:41Z</time>
      </trkpt>
      <trkpt lat="46.00392" lon="7.43182">
        <ele>3008.58</ele>
        <time>2010-04-15T06:06:54Z</time>
      </trkpt>
      <trkpt lat="46.00396" lon="7.43187">
        <ele>3010.99</ele>
        <time>2010-04-15T06:07:05Z</time>
      </trkpt>
      <trkpt lat="46.00394" lon="7.43192">
        <ele>3012.43</ele>
        <time>2010-04-15T06:07:15Z</time>
      </trkpt>
      <trkpt lat="46.00392" lon="7.43201">
        <ele>3013.87</ele>
        <time>2010-04-15T06:07:28Z</time>
      </trkpt>
      <trkpt lat="46.0039" lon="7.43209">
        <ele>3016.27</ele>
        <time>2010-04-15T06:07:42Z</time>
      </trkpt>
      <trkpt lat="46.00386" lon="7.43214">
        <ele>3018.68</ele>
        <time>2010-04-15T06:07:55Z</time>
      </trkpt>
      <trkpt lat="46.00385" lon="7.43215">
        <ele>3019.16</ele>
        <time>2010-04-15T06:07:57Z</time>
      </trkpt>
      <trkpt lat="46.00388" lon="7.43225">
        <ele>3021.08</ele>
        <time>2010-04-15T06:08:13Z</time>
      </trkpt>
      <trkpt lat="46.00392" lon="7.4323">
        <ele>3022.52</ele>
        <time>2010-04-15T06:08:24Z</time>
      </trkpt>
      <trkpt lat="46.00393" lon="7.43231">
        <ele>3023.48</ele>
        <time>2010-04-15T06:08:35Z</time>
      </trkpt>
      <trkpt lat="46.00396" lon="7.43234">
        <ele>3023.48</ele>
        <time>2010-04-15T06:08:46Z</time>
      </trkpt>
      <trkpt lat="46.00396" lon="7.43234">
        <ele>3024.44</ele>
        <time>2010-04-15T06:09:57Z</time>
      </trkpt>
      <trkpt lat="46.00399" lon="7.43237">
        <ele>3024.93</ele>
        <time>2010-04-15T06:10:37Z</time>
      </trkpt>
      <trkpt lat="46.00402" lon="7.43239">
        <ele>3026.37</ele>
        <time>2010-04-15T06:10:42Z</time>
      </trkpt>
      <trkpt lat="46.00406" lon="7.43242">
        <ele>3027.81</ele>
        <time>2010-04-15T06:10:52Z</time>
      </trkpt>
      <trkpt lat="46.00407" lon="7.43243">
        <ele>3027.81</ele>
        <time>2010-04-15T06:10:53Z</time>
      </trkpt>
      <trkpt lat="46.00412" lon="7.4325">
        <ele>3030.69</ele>
        <time>2010-04-15T06:11:05Z</time>
      </trkpt>
      <trkpt lat="46.00412" lon="7.43255">
        <ele>3032.62</ele>
        <time>2010-04-15T06:11:17Z</time>
      </trkpt>
      <trkpt lat="46.00412" lon="7.43256">
        <ele>3033.1</ele>
        <time>2010-04-15T06:11:21Z</time>
      </trkpt>
      <trkpt lat="46.00414" lon="7.43265">
        <ele>3035.98</ele>
        <time>2010-04-15T06:11:34Z</time>
      </trkpt>
      <trkpt lat="46.00413" lon="7.43267">
        <ele>3037.42</ele>
        <time>2010-04-15T06:11:47Z</time>
      </trkpt>
      <trkpt lat="46.00417" lon="7.43277">
        <ele>3039.35</ele>
        <time>2010-04-15T06:12:02Z</time>
      </trkpt>
      <trkpt lat="46.00421" lon="7.43282">
        <ele>3041.27</ele>
        <time>2010-04-15T06:12:15Z</time>
      </trkpt>
      <trkpt lat="46.00427" lon="7.43285">
        <ele>3042.23</ele>
        <time>2010-04-15T06:12:27Z</time>
      </trkpt>
      <trkpt lat="46.00435" lon="7.43286">
        <ele>3045.11</ele>
        <time>2010-04-15T06:12:41Z</time>
      </trkpt>
      <trkpt lat="46.00438" lon="7.43287">
        <ele>3045.11</ele>
        <time>2010-04-15T06:12:45Z</time>
      </trkpt>
      <trkpt lat="46.00448" lon="7.43289">
        <ele>3047.04</ele>
        <time>2010-04-15T06:12:57Z</time>
      </trkpt>
      <trkpt lat="46.00454" lon="7.43292">
        <ele>3048.96</ele>
        <time>2010-04-15T06:13:09Z</time>
      </trkpt>
      <trkpt lat="46.00457" lon="7.43295">
        <ele>3049.92</ele>
        <time>2010-04-15T06:13:22Z</time>
      </trkpt>
      <trkpt lat="46.00458" lon="7.43303">
        <ele>3051.36</ele>
        <time>2010-04-15T06:13:31Z</time>
      </trkpt>
      <trkpt lat="46.00456" lon="7.43308">
        <ele>3051.84</ele>
        <time>2010-04-15T06:13:40Z</time>
      </trkpt>
      <trkpt lat="46.00455" lon="7.43315">
        <ele>3054.73</ele>
        <time>2010-04-15T06:13:52Z</time>
      </trkpt>
      <trkpt lat="46.00455" lon="7.43321">
        <ele>3055.69</ele>
        <time>2010-04-15T06:14:05Z</time>
      </trkpt>
      <trkpt lat="46.00455" lon="7.43329">
        <ele>3057.13</ele>
        <time>2010-04-15T06:14:20Z</time>
      </trkpt>
      <trkpt lat="46.00453" lon="7.43339">
        <ele>3059.53</ele>
        <time>2010-04-15T06:14:33Z</time>
      </trkpt>
      <trkpt lat="46.00451" lon="7.43345">
        <ele>3061.46</ele>
        <time>2010-04-15T06:14:47Z</time>
      </trkpt>
      <trkpt lat="46.00452" lon="7.43354">
        <ele>3062.42</ele>
        <time>2010-04-15T06:14:59Z</time>
      </trkpt>
      <trkpt lat="46.00452" lon="7.43365">
        <ele>3064.82</ele>
        <time>2010-04-15T06:15:13Z</time>
      </trkpt>
      <trkpt lat="46.00451" lon="7.43371">
        <ele>3066.26</ele>
        <time>2010-04-15T06:15:25Z</time>
      </trkpt>
      <trkpt lat="46.00451" lon="7.43375">
        <ele>3067.22</ele>
        <time>2010-04-15T06:15:37Z</time>
      </trkpt>
      <trkpt lat="46.00451" lon="7.43382">
        <ele>3067.22</ele>
        <time>2010-04-15T06:16:01Z</time>
      </trkpt>
      <trkpt lat="46.0045" lon="7.4339">
        <ele>3070.11</ele>
        <time>2010-04-15T06:16:14Z</time>
      </trkpt>
      <trkpt lat="46.00448" lon="7.43397">
        <ele>3072.03</ele>
        <time>2010-04-15T06:16:27Z</time>
      </trkpt>
      <trkpt lat="46.00448" lon="7.43403">
        <ele>3073.47</ele>
        <time>2010-04-15T06:16:40Z</time>
      </trkpt>
      <trkpt lat="46.00447" lon="7.43411">
        <ele>3074.91</ele>
        <time>2010-04-15T06:16:52Z</time>
      </trkpt>
      <trkpt lat="46.00446" lon="7.43419">
        <ele>3076.84</ele>
        <time>2010-04-15T06:17:04Z</time>
      </trkpt>
      <trkpt lat="46.00445" lon="7.43423">
        <ele>3078.76</ele>
        <time>2010-04-15T06:17:11Z</time>
      </trkpt>
      <trkpt lat="46.00443" lon="7.43431">
        <ele>3080.2</ele>
        <time>2010-04-15T06:17:23Z</time>
      </trkpt>
      <trkpt lat="46.00441" lon="7.43439">
        <ele>3081.64</ele>
        <time>2010-04-15T06:17:36Z</time>
      </trkpt>
      <trkpt lat="46.00439" lon="7.43448">
        <ele>3082.6</ele>
        <time>2010-04-15T06:17:49Z</time>
      </trkpt>
      <trkpt lat="46.00437" lon="7.43457">
        <ele>3083.57</ele>
        <time>2010-04-15T06:18:01Z</time>
      </trkpt>
      <trkpt lat="46.00435" lon="7.43468">
        <ele>3085.97</ele>
        <time>2010-04-15T06:18:19Z</time>
      </trkpt>
      <trkpt lat="46.00431" lon="7.43482">
        <ele>3087.89</ele>
        <time>2010-04-15T06:18:37Z</time>
      </trkpt>
      <trkpt lat="46.00429" lon="7.43494">
        <ele>3089.81</ele>
        <time>2010-04-15T06:18:50Z</time>
      </trkpt>
      <trkpt lat="46.00427" lon="7.43502">
        <ele>3090.29</ele>
        <time>2010-04-15T06:19:02Z</time>
      </trkpt>
      <trkpt lat="46.00424" lon="7.43512">
        <ele>3091.26</ele>
        <time>2010-04-15T06:19:17Z</time>
      </trkpt>
      <trkpt lat="46.00422" lon="7.43521">
        <ele>3092.7</ele>
        <time>2010-04-15T06:19:29Z</time>
      </trkpt>
      <trkpt lat="46.00419" lon="7.43535">
        <ele>3094.62</ele>
        <time>2010-04-15T06:19:48Z</time>
      </trkpt>
      <trkpt lat="46.00421" lon="7.43546">
        <ele>3094.62</ele>
        <time>2010-04-15T06:20:01Z</time>
      </trkpt>
      <trkpt lat="46.00423" lon="7.43556">
        <ele>3096.06</ele>
        <time>2010-04-15T06:20:15Z</time>
      </trkpt>
      <trkpt lat="46.00423" lon="7.43557">
        <ele>3097.02</ele>
        <time>2010-04-15T06:20:17Z</time>
      </trkpt>
      <trkpt lat="46.00425" lon="7.4357">
        <ele>3098.47</ele>
        <time>2010-04-15T06:20:30Z</time>
      </trkpt>
      <trkpt lat="46.00425" lon="7.43579">
        <ele>3099.91</ele>
        <time>2010-04-15T06:20:46Z</time>
      </trkpt>
      <trkpt lat="46.00424" lon="7.43585">
        <ele>3100.39</ele>
        <time>2010-04-15T06:21:01Z</time>
      </trkpt>
      <trkpt lat="46.00425" lon="7.43592">
        <ele>3099.91</ele>
        <time>2010-04-15T06:21:15Z</time>
      </trkpt>
      <trkpt lat="46.00427" lon="7.43599">
        <ele>3099.91</ele>
        <time>2010-04-15T06:21:26Z</time>
      </trkpt>
      <trkpt lat="46.00427" lon="7.43599">
        <ele>3100.87</ele>
        <time>2010-04-15T06:21:48Z</time>
      </trkpt>
      <trkpt lat="46.00426" lon="7.43596">
        <ele>3100.39</ele>
        <time>2010-04-15T06:22:55Z</time>
      </trkpt>
      <trkpt lat="46.00425" lon="7.4359">
        <ele>3099.91</ele>
        <time>2010-04-15T06:23:13Z</time>
      </trkpt>
      <trkpt lat="46.00425" lon="7.4359">
        <ele>3100.39</ele>
        <time>2010-04-15T06:24:06Z</time>
      </trkpt>
      <trkpt lat="46.00425" lon="7.43591">
        <ele>3099.43</ele>
        <time>2010-04-15T06:25:22Z</time>
      </trkpt>
      <trkpt lat="46.00424" lon="7.43591">
        <ele>3100.39</ele>
        <time>2010-04-15T06:26:26Z</time>
      </trkpt>
      <trkpt lat="46.00423" lon="7.43592">
        <ele>3099.91</ele>
        <time>2010-04-15T06:26:58Z</time>
      </trkpt>
      <trkpt lat="46.00424" lon="7.43591">
        <ele>3099.91</ele>
        <time>2010-04-15T06:27:31Z</time>
      </trkpt>
      <trkpt lat="46.00418" lon="7.43591">
        <ele>3100.39</ele>
        <time>2010-04-15T06:27:42Z</time>
      </trkpt>
      <trkpt lat="46.0041" lon="7.43589">
        <ele>3103.27</ele>
        <time>2010-04-15T06:27:58Z</time>
      </trkpt>
      <trkpt lat="46.00406" lon="7.43591">
        <ele>3102.79</ele>
        <time>2010-04-15T06:28:09Z</time>
      </trkpt>
      <trkpt lat="46.00403" lon="7.43598">
        <ele>3104.23</ele>
        <time>2010-04-15T06:28:25Z</time>
      </trkpt>
      <trkpt lat="46.00402" lon="7.43605">
        <ele>3106.16</ele>
        <time>2010-04-15T06:28:36Z</time>
      </trkpt>
      <trkpt lat="46.00402" lon="7.43614">
        <ele>3108.56</ele>
        <time>2010-04-15T06:28:53Z</time>
      </trkpt>
      <trkpt lat="46.00402" lon="7.43619">
        <ele>3109.04</ele>
        <time>2010-04-15T06:29:04Z</time>
      </trkpt>
      <trkpt lat="46.00399" lon="7.43621">
        <ele>3109.52</ele>
        <time>2010-04-15T06:29:15Z</time>
      </trkpt>
      <trkpt lat="46.00397" lon="7.43623">
        <ele>3111.92</ele>
        <time>2010-04-15T06:29:25Z</time>
      </trkpt>
      <trkpt lat="46.00394" lon="7.43632">
        <ele>3113.37</ele>
        <time>2010-04-15T06:29:39Z</time>
      </trkpt>
      <trkpt lat="46.00392" lon="7.43637">
        <ele>3114.81</ele>
        <time>2010-04-15T06:29:50Z</time>
      </trkpt>
      <trkpt lat="46.0039" lon="7.43647">
        <ele>3116.25</ele>
        <time>2010-04-15T06:30:03Z</time>
      </trkpt>
      <trkpt lat="46.00389" lon="7.43653">
        <ele>3116.73</ele>
        <time>2010-04-15T06:30:17Z</time>
      </trkpt>
      <trkpt lat="46.00387" lon="7.43661">
        <ele>3119.62</ele>
        <time>2010-04-15T06:30:30Z</time>
      </trkpt>
      <trkpt lat="46.00386" lon="7.43668">
        <ele>3120.1</ele>
        <time>2010-04-15T06:30:44Z</time>
      </trkpt>
      <trkpt lat="46.00386" lon="7.43675">
        <ele>3121.54</ele>
        <time>2010-04-15T06:30:55Z</time>
      </trkpt>
      <trkpt lat="46.00387" lon="7.4368">
        <ele>3123.94</ele>
        <time>2010-04-15T06:31:07Z</time>
      </trkpt>
      <trkpt lat="46.00387" lon="7.43687">
        <ele>3124.9</ele>
        <time>2010-04-15T06:31:22Z</time>
      </trkpt>
      <trkpt lat="46.00388" lon="7.43693">
        <ele>3126.34</ele>
        <time>2010-04-15T06:31:34Z</time>
      </trkpt>
      <trkpt lat="46.00389" lon="7.437">
        <ele>3128.27</ele>
        <time>2010-04-15T06:31:48Z</time>
      </trkpt>
      <trkpt lat="46.00389" lon="7.43705">
        <ele>3129.23</ele>
        <time>2010-04-15T06:32:01Z</time>
      </trkpt>
      <trkpt lat="46.00389" lon="7.43709">
        <ele>3132.11</ele>
        <time>2010-04-15T06:32:11Z</time>
      </trkpt>
      <trkpt lat="46.00386" lon="7.43711">
        <ele>3132.59</ele>
        <time>2010-04-15T06:32:23Z</time>
      </trkpt>
      <trkpt lat="46.00385" lon="7.43712">
        <ele>3134.52</ele>
        <time>2010-04-15T06:32:28Z</time>
      </trkpt>
      <trkpt lat="46.00382" lon="7.43713">
        <ele>3137.4</ele>
        <time>2010-04-15T06:32:38Z</time>
      </trkpt>
      <trkpt lat="46.0038" lon="7.43713">
        <ele>3136.44</ele>
        <time>2010-04-15T06:32:44Z</time>
      </trkpt>
      <trkpt lat="46.00377" lon="7.43715">
        <ele>3137.4</ele>
        <time>2010-04-15T06:32:58Z</time>
      </trkpt>
      <trkpt lat="46.00373" lon="7.43719">
        <ele>3138.36</ele>
        <time>2010-04-15T06:33:09Z</time>
      </trkpt>
      <trkpt lat="46.00372" lon="7.43722">
        <ele>3140.28</ele>
        <time>2010-04-15T06:33:21Z</time>
      </trkpt>
      <trkpt lat="46.0037" lon="7.43726">
        <ele>3140.76</ele>
        <time>2010-04-15T06:33:33Z</time>
      </trkpt>
      <trkpt lat="46.00371" lon="7.4373">
        <ele>3142.69</ele>
        <time>2010-04-15T06:33:40Z</time>
      </trkpt>
      <trkpt lat="46.00371" lon="7.43739">
        <ele>3144.13</ele>
        <time>2010-04-15T06:33:52Z</time>
      </trkpt>
      <trkpt lat="46.00369" lon="7.43745">
        <ele>3145.09</ele>
        <time>2010-04-15T06:34:04Z</time>
      </trkpt>
      <trkpt lat="46.00366" lon="7.43749">
        <ele>3146.53</ele>
        <time>2010-04-15T06:34:16Z</time>
      </trkpt>
      <trkpt lat="46.00364" lon="7.43752">
        <ele>3147.97</ele>
        <time>2010-04-15T06:34:27Z</time>
      </trkpt>
      <trkpt lat="46.00359" lon="7.43757">
        <ele>3149.42</ele>
        <time>2010-04-15T06:34:41Z</time>
      </trkpt>
      <trkpt lat="46.00356" lon="7.43756">
        <ele>3151.82</ele>
        <time>2010-04-15T06:34:55Z</time>
      </trkpt>
      <trkpt lat="46.00352" lon="7.43754">
        <ele>3153.74</ele>
        <time>2010-04-15T06:35:20Z</time>
      </trkpt>
      <trkpt lat="46.00352" lon="7.43754">
        <ele>3156.63</ele>
        <time>2010-04-15T06:35:42Z</time>
      </trkpt>
      <trkpt lat="46.00351" lon="7.43753">
        <ele>3159.51</ele>
        <time>2010-04-15T06:36:11Z</time>
      </trkpt>
      <trkpt lat="46.00351" lon="7.43753">
        <ele>3159.99</ele>
        <time>2010-04-15T06:36:12Z</time>
      </trkpt>
      <trkpt lat="46.00344" lon="7.43747">
        <ele>3163.36</ele>
        <time>2010-04-15T06:36:43Z</time>
      </trkpt>
      <trkpt lat="46.00342" lon="7.43747">
        <ele>3166.24</ele>
        <time>2010-04-15T06:37:09Z</time>
      </trkpt>
      <trkpt lat="46.00338" lon="7.43743">
        <ele>3169.12</ele>
        <time>2010-04-15T06:37:41Z</time>
      </trkpt>
      <trkpt lat="46.00321" lon="7.43727">
        <ele>3170.57</ele>
        <time>2010-04-15T06:37:57Z</time>
      </trkpt>
      <trkpt lat="46.00303" lon="7.43698">
        <ele>3172.01</ele>
        <time>2010-04-15T06:38:15Z</time>
      </trkpt>
      <trkpt lat="46.00297" lon="7.43694">
        <ele>3174.41</ele>
        <time>2010-04-15T06:38:28Z</time>
      </trkpt>
      <trkpt lat="46.00293" lon="7.43692">
        <ele>3174.89</ele>
        <time>2010-04-15T06:38:40Z</time>
      </trkpt>
      <trkpt lat="46.0029" lon="7.43692">
        <ele>3176.33</ele>
        <time>2010-04-15T06:38:53Z</time>
      </trkpt>
      <trkpt lat="46.00286" lon="7.43691">
        <ele>3177.78</ele>
        <time>2010-04-15T06:39:01Z</time>
      </trkpt>
      <trkpt lat="46.00284" lon="7.43692">
        <ele>3179.22</ele>
        <time>2010-04-15T06:39:06Z</time>
      </trkpt>
      <trkpt lat="46.00279" lon="7.43691">
        <ele>3180.18</ele>
        <time>2010-04-15T06:39:19Z</time>
      </trkpt>
      <trkpt lat="46.00278" lon="7.43691">
        <ele>3179.7</ele>
        <time>2010-04-15T06:39:27Z</time>
      </trkpt>
      <trkpt lat="46.00275" lon="7.43699">
        <ele>3182.1</ele>
        <time>2010-04-15T06:39:40Z</time>
      </trkpt>
      <trkpt lat="46.00274" lon="7.43705">
        <ele>3183.54</ele>
        <time>2010-04-15T06:39:52Z</time>
      </trkpt>
      <trkpt lat="46.00273" lon="7.43711">
        <ele>3184.98</ele>
        <time>2010-04-15T06:40:04Z</time>
      </trkpt>
      <trkpt lat="46.00272" lon="7.43716">
        <ele>3186.43</ele>
        <time>2010-04-15T06:40:18Z</time>
      </trkpt>
      <trkpt lat="46.00273" lon="7.4372">
        <ele>3187.39</ele>
        <time>2010-04-15T06:40:30Z</time>
      </trkpt>
      <trkpt lat="46.00271" lon="7.43724">
        <ele>3190.75</ele>
        <time>2010-04-15T06:40:42Z</time>
      </trkpt>
      <trkpt lat="46.00268" lon="7.4372">
        <ele>3191.23</ele>
        <time>2010-04-15T06:40:54Z</time>
      </trkpt>
      <trkpt lat="46.00267" lon="7.43719">
        <ele>3192.2</ele>
        <time>2010-04-15T06:41:06Z</time>
      </trkpt>
      <trkpt lat="46.00267" lon="7.43719">
        <ele>3193.16</ele>
        <time>2010-04-15T06:41:09Z</time>
      </trkpt>
      <trkpt lat="46.00264" lon="7.43718">
        <ele>3196.52</ele>
        <time>2010-04-15T06:41:15Z</time>
      </trkpt>
      <trkpt lat="46.00261" lon="7.43726">
        <ele>3195.56</ele>
        <time>2010-04-15T06:41:24Z</time>
      </trkpt>
      <trkpt lat="46.00257" lon="7.43732">
        <ele>3196.52</ele>
        <time>2010-04-15T06:41:38Z</time>
      </trkpt>
      <trkpt lat="46.00256" lon="7.43736">
        <ele>3197.96</ele>
        <time>2010-04-15T06:41:51Z</time>
      </trkpt>
      <trkpt lat="46.00253" lon="7.43743">
        <ele>3198.44</ele>
        <time>2010-04-15T06:42:04Z</time>
      </trkpt>
      <trkpt lat="46.00251" lon="7.43749">
        <ele>3200.37</ele>
        <time>2010-04-15T06:42:17Z</time>
      </trkpt>
      <trkpt lat="46.00251" lon="7.43754">
        <ele>3201.33</ele>
        <time>2010-04-15T06:42:28Z</time>
      </trkpt>
      <trkpt lat="46.00251" lon="7.43757">
        <ele>3203.25</ele>
        <time>2010-04-15T06:42:36Z</time>
      </trkpt>
      <trkpt lat="46.00248" lon="7.43754">
        <ele>3203.73</ele>
        <time>2010-04-15T06:42:47Z</time>
      </trkpt>
      <trkpt lat="46.00247" lon="7.43753">
        <ele>3205.17</ele>
        <time>2010-04-15T06:43:00Z</time>
      </trkpt>
      <trkpt lat="46.00247" lon="7.43751">
        <ele>3205.65</ele>
        <time>2010-04-15T06:43:14Z</time>
      </trkpt>
      <trkpt lat="46.00246" lon="7.4375">
        <ele>3207.1</ele>
        <time>2010-04-15T06:43:29Z</time>
      </trkpt>
      <trkpt lat="46.0024" lon="7.43745">
        <ele>3207.1</ele>
        <time>2010-04-15T06:43:39Z</time>
      </trkpt>
      <trkpt lat="46.00236" lon="7.43749">
        <ele>3209.02</ele>
        <time>2010-04-15T06:43:51Z</time>
      </trkpt>
      <trkpt lat="46.00231" lon="7.43756">
        <ele>3209.98</ele>
        <time>2010-04-15T06:44:03Z</time>
      </trkpt>
      <trkpt lat="46.0023" lon="7.43761">
        <ele>3212.38</ele>
        <time>2010-04-15T06:44:15Z</time>
      </trkpt>
      <trkpt lat="46.0023" lon="7.43764">
        <ele>3212.86</ele>
        <time>2010-04-15T06:44:28Z</time>
      </trkpt>
      <trkpt lat="46.00229" lon="7.43768">
        <ele>3214.31</ele>
        <time>2010-04-15T06:44:36Z</time>
      </trkpt>
      <trkpt lat="46.00228" lon="7.43769">
        <ele>3214.31</ele>
        <time>2010-04-15T06:44:47Z</time>
      </trkpt>
      <trkpt lat="46.00226" lon="7.43765">
        <ele>3216.71</ele>
        <time>2010-04-15T06:44:57Z</time>
      </trkpt>
      <trkpt lat="46.00226" lon="7.43765">
        <ele>3217.19</ele>
        <time>2010-04-15T06:45:09Z</time>
      </trkpt>
      <trkpt lat="46.00226" lon="7.43765">
        <ele>3220.07</ele>
        <time>2010-04-15T06:45:19Z</time>
      </trkpt>
      <trkpt lat="46.00226" lon="7.43765">
        <ele>3221.03</ele>
        <time>2010-04-15T06:45:31Z</time>
      </trkpt>
      <trkpt lat="46.00225" lon="7.43763">
        <ele>3221.52</ele>
        <time>2010-04-15T06:45:42Z</time>
      </trkpt>
      <trkpt lat="46.00222" lon="7.43756">
        <ele>3223.44</ele>
        <time>2010-04-15T06:45:54Z</time>
      </trkpt>
      <trkpt lat="46.00218" lon="7.43749">
        <ele>3223.44</ele>
        <time>2010-04-15T06:46:05Z</time>
      </trkpt>
      <trkpt lat="46.00216" lon="7.43744">
        <ele>3224.88</ele>
        <time>2010-04-15T06:46:18Z</time>
      </trkpt>
      <trkpt lat="46.00212" lon="7.4374">
        <ele>3225.84</ele>
        <time>2010-04-15T06:46:31Z</time>
      </trkpt>
      <trkpt lat="46.0021" lon="7.43737">
        <ele>3227.28</ele>
        <time>2010-04-15T06:46:42Z</time>
      </trkpt>
      <trkpt lat="46.00207" lon="7.43737">
        <ele>3229.21</ele>
        <time>2010-04-15T06:46:50Z</time>
      </trkpt>
      <trkpt lat="46.00203" lon="7.43733">
        <ele>3229.21</ele>
        <time>2010-04-15T06:47:02Z</time>
      </trkpt>
      <trkpt lat="46.00201" lon="7.43732">
        <ele>3230.65</ele>
        <time>2010-04-15T06:47:15Z</time>
      </trkpt>
      <trkpt lat="46.00189" lon="7.43744">
        <ele>3232.09</ele>
        <time>2010-04-15T06:47:26Z</time>
      </trkpt>
      <trkpt lat="46.00186" lon="7.43749">
        <ele>3233.53</ele>
        <time>2010-04-15T06:47:38Z</time>
      </trkpt>
      <trkpt lat="46.00183" lon="7.43754">
        <ele>3234.01</ele>
        <time>2010-04-15T06:47:50Z</time>
      </trkpt>
      <trkpt lat="46.00183" lon="7.43756">
        <ele>3235.45</ele>
        <time>2010-04-15T06:47:56Z</time>
      </trkpt>
      <trkpt lat="46.00183" lon="7.4376">
        <ele>3235.94</ele>
        <time>2010-04-15T06:48:08Z</time>
      </trkpt>
      <trkpt lat="46.00183" lon="7.43768">
        <ele>3237.38</ele>
        <time>2010-04-15T06:48:19Z</time>
      </trkpt>
      <trkpt lat="46.00183" lon="7.43776">
        <ele>3238.82</ele>
        <time>2010-04-15T06:48:31Z</time>
      </trkpt>
      <trkpt lat="46.00184" lon="7.43782">
        <ele>3240.26</ele>
        <time>2010-04-15T06:48:44Z</time>
      </trkpt>
      <trkpt lat="46.00184" lon="7.43789">
        <ele>3243.14</ele>
        <time>2010-04-15T06:48:58Z</time>
      </trkpt>
      <trkpt lat="46.00185" lon="7.43788">
        <ele>3242.66</ele>
        <time>2010-04-15T06:49:05Z</time>
      </trkpt>
      <trkpt lat="46.00181" lon="7.43781">
        <ele>3244.11</ele>
        <time>2010-04-15T06:49:18Z</time>
      </trkpt>
      <trkpt lat="46.00182" lon="7.43781">
        <ele>3247.47</ele>
        <time>2010-04-15T06:49:34Z</time>
      </trkpt>
      <trkpt lat="46.0018" lon="7.43779">
        <ele>3247.95</ele>
        <time>2010-04-15T06:49:47Z</time>
      </trkpt>
      <trkpt lat="46.00176" lon="7.43773">
        <ele>3250.35</ele>
        <time>2010-04-15T06:49:57Z</time>
      </trkpt>
      <trkpt lat="46.00176" lon="7.43773">
        <ele>3250.35</ele>
        <time>2010-04-15T06:49:58Z</time>
      </trkpt>
      <trkpt lat="46.00174" lon="7.4377">
        <ele>3250.35</ele>
        <time>2010-04-15T06:50:11Z</time>
      </trkpt>
      <trkpt lat="46.0017" lon="7.43766">
        <ele>3251.32</ele>
        <time>2010-04-15T06:50:28Z</time>
      </trkpt>
      <trkpt lat="46.00161" lon="7.43763">
        <ele>3252.76</ele>
        <time>2010-04-15T06:50:42Z</time>
      </trkpt>
      <trkpt lat="46.00156" lon="7.4376">
        <ele>3254.68</ele>
        <time>2010-04-15T06:50:55Z</time>
      </trkpt>
      <trkpt lat="46.00152" lon="7.4376">
        <ele>3255.64</ele>
        <time>2010-04-15T06:51:08Z</time>
      </trkpt>
      <trkpt lat="46.00147" lon="7.43758">
        <ele>3257.56</ele>
        <time>2010-04-15T06:51:23Z</time>
      </trkpt>
      <trkpt lat="46.00141" lon="7.43756">
        <ele>3259.49</ele>
        <time>2010-04-15T06:51:36Z</time>
      </trkpt>
      <trkpt lat="46.00135" lon="7.43755">
        <ele>3259.97</ele>
        <time>2010-04-15T06:51:49Z</time>
      </trkpt>
      <trkpt lat="46.00127" lon="7.43752">
        <ele>3260.93</ele>
        <time>2010-04-15T06:52:03Z</time>
      </trkpt>
      <trkpt lat="46.0012" lon="7.4375">
        <ele>3262.85</ele>
        <time>2010-04-15T06:52:17Z</time>
      </trkpt>
      <trkpt lat="46.00115" lon="7.43749">
        <ele>3263.81</ele>
        <time>2010-04-15T06:52:33Z</time>
      </trkpt>
      <trkpt lat="46.00111" lon="7.43748">
        <ele>3264.29</ele>
        <time>2010-04-15T06:52:45Z</time>
      </trkpt>
      <trkpt lat="46.00106" lon="7.43744">
        <ele>3266.22</ele>
        <time>2010-04-15T06:53:02Z</time>
      </trkpt>
      <trkpt lat="46.00104" lon="7.43742">
        <ele>3266.7</ele>
        <time>2010-04-15T06:53:15Z</time>
      </trkpt>
      <trkpt lat="46.00097" lon="7.43742">
        <ele>3267.18</ele>
        <time>2010-04-15T06:53:25Z</time>
      </trkpt>
      <trkpt lat="46.00097" lon="7.43751">
        <ele>3269.1</ele>
        <time>2010-04-15T06:53:38Z</time>
      </trkpt>
      <trkpt lat="46.00094" lon="7.43756">
        <ele>3270.06</ele>
        <time>2010-04-15T06:53:48Z</time>
      </trkpt>
      <trkpt lat="46.00093" lon="7.43763">
        <ele>3271.5</ele>
        <time>2010-04-15T06:54:00Z</time>
      </trkpt>
      <trkpt lat="46.00094" lon="7.43765">
        <ele>3271.98</ele>
        <time>2010-04-15T06:54:05Z</time>
      </trkpt>
      <trkpt lat="46.00096" lon="7.4377">
        <ele>3273.43</ele>
        <time>2010-04-15T06:54:16Z</time>
      </trkpt>
      <trkpt lat="46.00099" lon="7.43777">
        <ele>3274.39</ele>
        <time>2010-04-15T06:54:29Z</time>
      </trkpt>
      <trkpt lat="46.001" lon="7.43779">
        <ele>3275.35</ele>
        <time>2010-04-15T06:54:37Z</time>
      </trkpt>
      <trkpt lat="46.001" lon="7.4378">
        <ele>3276.31</ele>
        <time>2010-04-15T06:54:43Z</time>
      </trkpt>
      <trkpt lat="46.001" lon="7.43783">
        <ele>3277.75</ele>
        <time>2010-04-15T06:54:58Z</time>
      </trkpt>
      <trkpt lat="46.00102" lon="7.43788">
        <ele>3279.67</ele>
        <time>2010-04-15T06:55:11Z</time>
      </trkpt>
      <trkpt lat="46.00106" lon="7.43796">
        <ele>3280.16</ele>
        <time>2010-04-15T06:55:22Z</time>
      </trkpt>
      <trkpt lat="46.00108" lon="7.43801">
        <ele>3281.12</ele>
        <time>2010-04-15T06:55:32Z</time>
      </trkpt>
      <trkpt lat="46.00107" lon="7.43803">
        <ele>3282.08</ele>
        <time>2010-04-15T06:55:35Z</time>
      </trkpt>
      <trkpt lat="46.00107" lon="7.43806">
        <ele>3284</ele>
        <time>2010-04-15T06:55:47Z</time>
      </trkpt>
      <trkpt lat="46.00107" lon="7.4381">
        <ele>3284.96</ele>
        <time>2010-04-15T06:55:59Z</time>
      </trkpt>
      <trkpt lat="46.00109" lon="7.43814">
        <ele>3285.44</ele>
        <time>2010-04-15T06:56:10Z</time>
      </trkpt>
      <trkpt lat="46.0011" lon="7.43818">
        <ele>3286.4</ele>
        <time>2010-04-15T06:56:22Z</time>
      </trkpt>
      <trkpt lat="46.00108" lon="7.43815">
        <ele>3288.33</ele>
        <time>2010-04-15T06:56:33Z</time>
      </trkpt>
      <trkpt lat="46.00104" lon="7.43815">
        <ele>3289.77</ele>
        <time>2010-04-15T06:56:45Z</time>
      </trkpt>
      <trkpt lat="46.00101" lon="7.43815">
        <ele>3291.69</ele>
        <time>2010-04-15T06:56:58Z</time>
      </trkpt>
      <trkpt lat="46.00099" lon="7.43814">
        <ele>3292.65</ele>
        <time>2010-04-15T06:57:14Z</time>
      </trkpt>
      <trkpt lat="46.00099" lon="7.43814">
        <ele>3291.21</ele>
        <time>2010-04-15T06:58:22Z</time>
      </trkpt>
      <trkpt lat="46.00095" lon="7.43814">
        <ele>3294.58</ele>
        <time>2010-04-15T06:58:45Z</time>
      </trkpt>
      <trkpt lat="46.00092" lon="7.43815">
        <ele>3294.09</ele>
        <time>2010-04-15T06:58:55Z</time>
      </trkpt>
      <trkpt lat="46.00088" lon="7.43825">
        <ele>3296.5</ele>
        <time>2010-04-15T06:59:07Z</time>
      </trkpt>
      <trkpt lat="46.00087" lon="7.43831">
        <ele>3297.46</ele>
        <time>2010-04-15T06:59:20Z</time>
      </trkpt>
      <trkpt lat="46.00086" lon="7.43836">
        <ele>3298.9</ele>
        <time>2010-04-15T06:59:31Z</time>
      </trkpt>
      <trkpt lat="46.00085" lon="7.43833">
        <ele>3299.86</ele>
        <time>2010-04-15T06:59:42Z</time>
      </trkpt>
      <trkpt lat="46.00082" lon="7.43829">
        <ele>3302.27</ele>
        <time>2010-04-15T06:59:56Z</time>
      </trkpt>
      <trkpt lat="46.00078" lon="7.43826">
        <ele>3302.75</ele>
        <time>2010-04-15T07:00:08Z</time>
      </trkpt>
      <trkpt lat="46.00074" lon="7.43826">
        <ele>3305.63</ele>
        <time>2010-04-15T07:00:21Z</time>
      </trkpt>
      <trkpt lat="46.00071" lon="7.43825">
        <ele>3306.59</ele>
        <time>2010-04-15T07:00:31Z</time>
      </trkpt>
      <trkpt lat="46.00069" lon="7.43825">
        <ele>3306.59</ele>
        <time>2010-04-15T07:00:39Z</time>
      </trkpt>
      <trkpt lat="46.00069" lon="7.43825">
        <ele>3305.15</ele>
        <time>2010-04-15T07:00:42Z</time>
      </trkpt>
      <trkpt lat="46.00069" lon="7.43825">
        <ele>3306.11</ele>
        <time>2010-04-15T07:00:51Z</time>
      </trkpt>
      <trkpt lat="46.00069" lon="7.43825">
        <ele>3304.19</ele>
        <time>2010-04-15T07:00:56Z</time>
      </trkpt>
      <trkpt lat="46.00068" lon="7.43825">
        <ele>3306.11</ele>
        <time>2010-04-15T07:01:15Z</time>
      </trkpt>
      <trkpt lat="46.00066" lon="7.43832">
        <ele>3307.55</ele>
        <time>2010-04-15T07:01:28Z</time>
      </trkpt>
      <trkpt lat="46.00063" lon="7.43839">
        <ele>3308.03</ele>
        <time>2010-04-15T07:01:39Z</time>
      </trkpt>
      <trkpt lat="46.0006" lon="7.43844">
        <ele>3309.48</ele>
        <time>2010-04-15T07:01:51Z</time>
      </trkpt>
      <trkpt lat="46.00061" lon="7.43848">
        <ele>3311.88</ele>
        <time>2010-04-15T07:02:02Z</time>
      </trkpt>
      <trkpt lat="46.00061" lon="7.4385">
        <ele>3313.32</ele>
        <time>2010-04-15T07:02:09Z</time>
      </trkpt>
      <trkpt lat="46.00058" lon="7.43853">
        <ele>3315.24</ele>
        <time>2010-04-15T07:02:21Z</time>
      </trkpt>
      <trkpt lat="46.00056" lon="7.43857">
        <ele>3317.17</ele>
        <time>2010-04-15T07:02:32Z</time>
      </trkpt>
      <trkpt lat="46.00055" lon="7.43859">
        <ele>3317.65</ele>
        <time>2010-04-15T07:02:37Z</time>
      </trkpt>
      <trkpt lat="46.00054" lon="7.43866">
        <ele>3318.61</ele>
        <time>2010-04-15T07:02:47Z</time>
      </trkpt>
      <trkpt lat="46.00052" lon="7.43871">
        <ele>3320.05</ele>
        <time>2010-04-15T07:02:57Z</time>
      </trkpt>
      <trkpt lat="46.00052" lon="7.4388">
        <ele>3320.53</ele>
        <time>2010-04-15T07:03:09Z</time>
      </trkpt>
      <trkpt lat="46.00051" lon="7.43887">
        <ele>3322.45</ele>
        <time>2010-04-15T07:03:19Z</time>
      </trkpt>
      <trkpt lat="46.00049" lon="7.43891">
        <ele>3324.38</ele>
        <time>2010-04-15T07:03:30Z</time>
      </trkpt>
      <trkpt lat="46.00049" lon="7.43896">
        <ele>3324.86</ele>
        <time>2010-04-15T07:03:41Z</time>
      </trkpt>
      <trkpt lat="46.00048" lon="7.43901">
        <ele>3325.82</ele>
        <time>2010-04-15T07:03:51Z</time>
      </trkpt>
      <trkpt lat="46.00047" lon="7.43904">
        <ele>3327.26</ele>
        <time>2010-04-15T07:04:02Z</time>
      </trkpt>
      <trkpt lat="46.00046" lon="7.43908">
        <ele>3330.62</ele>
        <time>2010-04-15T07:04:11Z</time>
      </trkpt>
      <trkpt lat="46.00046" lon="7.43914">
        <ele>3330.14</ele>
        <time>2010-04-15T07:04:20Z</time>
      </trkpt>
      <trkpt lat="46.00044" lon="7.43917">
        <ele>3331.59</ele>
        <time>2010-04-15T07:04:25Z</time>
      </trkpt>
      <trkpt lat="46.00044" lon="7.43921">
        <ele>3332.55</ele>
        <time>2010-04-15T07:04:32Z</time>
      </trkpt>
      <trkpt lat="46.0004" lon="7.43921">
        <ele>3333.51</ele>
        <time>2010-04-15T07:04:43Z</time>
      </trkpt>
      <trkpt lat="46.00038" lon="7.4392">
        <ele>3334.95</ele>
        <time>2010-04-15T07:04:56Z</time>
      </trkpt>
      <trkpt lat="46.00034" lon="7.43919">
        <ele>3335.91</ele>
        <time>2010-04-15T07:05:09Z</time>
      </trkpt>
      <trkpt lat="46.00031" lon="7.43917">
        <ele>3336.87</ele>
        <time>2010-04-15T07:05:20Z</time>
      </trkpt>
      <trkpt lat="46.00026" lon="7.43916">
        <ele>3339.28</ele>
        <time>2010-04-15T07:05:33Z</time>
      </trkpt>
      <trkpt lat="46.00023" lon="7.43918">
        <ele>3339.28</ele>
        <time>2010-04-15T07:05:43Z</time>
      </trkpt>
      <trkpt lat="46.00019" lon="7.43925">
        <ele>3341.68</ele>
        <time>2010-04-15T07:05:54Z</time>
      </trkpt>
      <trkpt lat="46.00017" lon="7.4393">
        <ele>3342.64</ele>
        <time>2010-04-15T07:05:59Z</time>
      </trkpt>
      <trkpt lat="46.00014" lon="7.4393">
        <ele>3342.64</ele>
        <time>2010-04-15T07:06:09Z</time>
      </trkpt>
      <trkpt lat="46.00011" lon="7.43931">
        <ele>3345.04</ele>
        <time>2010-04-15T07:06:19Z</time>
      </trkpt>
      <trkpt lat="46.00005" lon="7.43932">
        <ele>3346.01</ele>
        <time>2010-04-15T07:06:33Z</time>
      </trkpt>
      <trkpt lat="46.00001" lon="7.43932">
        <ele>3348.41</ele>
        <time>2010-04-15T07:06:46Z</time>
      </trkpt>
      <trkpt lat="45.99997" lon="7.43932">
        <ele>3349.37</ele>
        <time>2010-04-15T07:06:58Z</time>
      </trkpt>
      <trkpt lat="45.99991" lon="7.43934">
        <ele>3351.29</ele>
        <time>2010-04-15T07:07:10Z</time>
      </trkpt>
      <trkpt lat="45.99984" lon="7.43934">
        <ele>3352.25</ele>
        <time>2010-04-15T07:07:22Z</time>
      </trkpt>
      <trkpt lat="45.99983" lon="7.43934">
        <ele>3352.25</ele>
        <time>2010-04-15T07:07:23Z</time>
      </trkpt>
      <trkpt lat="45.99978" lon="7.43933">
        <ele>3354.18</ele>
        <time>2010-04-15T07:07:39Z</time>
      </trkpt>
      <trkpt lat="45.99972" lon="7.4393">
        <ele>3355.62</ele>
        <time>2010-04-15T07:07:52Z</time>
      </trkpt>
      <trkpt lat="45.99972" lon="7.4393">
        <ele>3355.62</ele>
        <time>2010-04-15T07:07:53Z</time>
      </trkpt>
      <trkpt lat="45.99966" lon="7.43928">
        <ele>3357.06</ele>
        <time>2010-04-15T07:08:04Z</time>
      </trkpt>
      <trkpt lat="45.99965" lon="7.43927">
        <ele>3357.06</ele>
        <time>2010-04-15T07:08:05Z</time>
      </trkpt>
      <trkpt lat="45.99959" lon="7.43925">
        <ele>3358.5</ele>
        <time>2010-04-15T07:08:21Z</time>
      </trkpt>
      <trkpt lat="45.99951" lon="7.43923">
        <ele>3359.46</ele>
        <time>2010-04-15T07:08:33Z</time>
      </trkpt>
      <trkpt lat="45.99951" lon="7.43923">
        <ele>3359.46</ele>
        <time>2010-04-15T07:08:34Z</time>
      </trkpt>
      <trkpt lat="45.99947" lon="7.4392">
        <ele>3360.91</ele>
        <time>2010-04-15T07:08:49Z</time>
      </trkpt>
      <trkpt lat="45.99943" lon="7.4392">
        <ele>3362.35</ele>
        <time>2010-04-15T07:08:57Z</time>
      </trkpt>
      <trkpt lat="45.99937" lon="7.43917">
        <ele>3362.35</ele>
        <time>2010-04-15T07:09:08Z</time>
      </trkpt>
      <trkpt lat="45.9993" lon="7.43914">
        <ele>3362.83</ele>
        <time>2010-04-15T07:09:20Z</time>
      </trkpt>
      <trkpt lat="45.99928" lon="7.43914">
        <ele>3364.27</ele>
        <time>2010-04-15T07:09:23Z</time>
      </trkpt>
      <trkpt lat="45.99923" lon="7.43917">
        <ele>3365.23</ele>
        <time>2010-04-15T07:09:39Z</time>
      </trkpt>
      <trkpt lat="45.99919" lon="7.4392">
        <ele>3366.19</ele>
        <time>2010-04-15T07:09:51Z</time>
      </trkpt>
      <trkpt lat="45.99918" lon="7.4392">
        <ele>3367.64</ele>
        <time>2010-04-15T07:09:56Z</time>
      </trkpt>
      <trkpt lat="45.99912" lon="7.43924">
        <ele>3368.6</ele>
        <time>2010-04-15T07:10:10Z</time>
      </trkpt>
      <trkpt lat="45.99907" lon="7.43929">
        <ele>3370.04</ele>
        <time>2010-04-15T07:10:22Z</time>
      </trkpt>
      <trkpt lat="45.99902" lon="7.43934">
        <ele>3371.48</ele>
        <time>2010-04-15T07:10:36Z</time>
      </trkpt>
      <trkpt lat="45.99899" lon="7.43938">
        <ele>3372.92</ele>
        <time>2010-04-15T07:10:46Z</time>
      </trkpt>
      <trkpt lat="45.99894" lon="7.43944">
        <ele>3373.4</ele>
        <time>2010-04-15T07:10:57Z</time>
      </trkpt>
      <trkpt lat="45.9989" lon="7.4395">
        <ele>3375.33</ele>
        <time>2010-04-15T07:11:10Z</time>
      </trkpt>
      <trkpt lat="45.99887" lon="7.43952">
        <ele>3375.81</ele>
        <time>2010-04-15T07:11:19Z</time>
      </trkpt>
      <trkpt lat="45.99881" lon="7.43953">
        <ele>3377.25</ele>
        <time>2010-04-15T07:11:36Z</time>
      </trkpt>
      <trkpt lat="45.99873" lon="7.4395">
        <ele>3379.65</ele>
        <time>2010-04-15T07:11:48Z</time>
      </trkpt>
      <trkpt lat="45.99873" lon="7.4395">
        <ele>3378.21</ele>
        <time>2010-04-15T07:11:50Z</time>
      </trkpt>
      <trkpt lat="45.99869" lon="7.43948">
        <ele>3380.61</ele>
        <time>2010-04-15T07:12:02Z</time>
      </trkpt>
      <trkpt lat="45.99868" lon="7.43948">
        <ele>3381.09</ele>
        <time>2010-04-15T07:12:04Z</time>
      </trkpt>
      <trkpt lat="45.99862" lon="7.43947">
        <ele>3383.02</ele>
        <time>2010-04-15T07:12:17Z</time>
      </trkpt>
      <trkpt lat="45.99858" lon="7.43943">
        <ele>3382.54</ele>
        <time>2010-04-15T07:12:31Z</time>
      </trkpt>
      <trkpt lat="45.99852" lon="7.43938">
        <ele>3383.98</ele>
        <time>2010-04-15T07:12:44Z</time>
      </trkpt>
      <trkpt lat="45.99848" lon="7.43937">
        <ele>3385.42</ele>
        <time>2010-04-15T07:12:58Z</time>
      </trkpt>
      <trkpt lat="45.99846" lon="7.43935">
        <ele>3378.21</ele>
        <time>2010-04-15T07:13:09Z</time>
      </trkpt>
      <trkpt lat="45.99846" lon="7.43935">
        <ele>3383.98</ele>
        <time>2010-04-15T07:13:10Z</time>
      </trkpt>
      <trkpt lat="45.99847" lon="7.43935">
        <ele>3387.82</ele>
        <time>2010-04-15T07:13:25Z</time>
      </trkpt>
      <trkpt lat="45.99847" lon="7.43935">
        <ele>3385.42</ele>
        <time>2010-04-15T07:13:33Z</time>
      </trkpt>
      <trkpt lat="45.99842" lon="7.43933">
        <ele>3386.86</ele>
        <time>2010-04-15T07:13:49Z</time>
      </trkpt>
      <trkpt lat="45.99835" lon="7.43928">
        <ele>3387.82</ele>
        <time>2010-04-15T07:14:04Z</time>
      </trkpt>
      <trkpt lat="45.99829" lon="7.43934">
        <ele>3389.75</ele>
        <time>2010-04-15T07:14:20Z</time>
      </trkpt>
      <trkpt lat="45.99826" lon="7.43938">
        <ele>3391.67</ele>
        <time>2010-04-15T07:14:27Z</time>
      </trkpt>
      <trkpt lat="45.99817" lon="7.43946">
        <ele>3392.15</ele>
        <time>2010-04-15T07:14:40Z</time>
      </trkpt>
      <trkpt lat="45.99816" lon="7.43948">
        <ele>3393.59</ele>
        <time>2010-04-15T07:14:42Z</time>
      </trkpt>
      <trkpt lat="45.99812" lon="7.43953">
        <ele>3395.99</ele>
        <time>2010-04-15T07:14:55Z</time>
      </trkpt>
      <trkpt lat="45.99812" lon="7.43954">
        <ele>3395.99</ele>
        <time>2010-04-15T07:14:56Z</time>
      </trkpt>
      <trkpt lat="45.99804" lon="7.4396">
        <ele>3397.44</ele>
        <time>2010-04-15T07:15:13Z</time>
      </trkpt>
      <trkpt lat="45.99797" lon="7.43968">
        <ele>3399.36</ele>
        <time>2010-04-15T07:15:27Z</time>
      </trkpt>
      <trkpt lat="45.99791" lon="7.43976">
        <ele>3399.36</ele>
        <time>2010-04-15T07:15:41Z</time>
      </trkpt>
      <trkpt lat="45.99787" lon="7.43981">
        <ele>3401.76</ele>
        <time>2010-04-15T07:15:53Z</time>
      </trkpt>
      <trkpt lat="45.99785" lon="7.43984">
        <ele>3401.76</ele>
        <time>2010-04-15T07:16:00Z</time>
      </trkpt>
      <trkpt lat="45.99779" lon="7.43988">
        <ele>3403.2</ele>
        <time>2010-04-15T07:16:15Z</time>
      </trkpt>
      <trkpt lat="45.99778" lon="7.43988">
        <ele>3404.65</ele>
        <time>2010-04-15T07:16:17Z</time>
      </trkpt>
      <trkpt lat="45.99775" lon="7.43993">
        <ele>3405.13</ele>
        <time>2010-04-15T07:16:29Z</time>
      </trkpt>
      <trkpt lat="45.99768" lon="7.44001">
        <ele>3406.09</ele>
        <time>2010-04-15T07:16:44Z</time>
      </trkpt>
      <trkpt lat="45.99765" lon="7.44004">
        <ele>3408.49</ele>
        <time>2010-04-15T07:16:53Z</time>
      </trkpt>
      <trkpt lat="45.99757" lon="7.44011">
        <ele>3409.45</ele>
        <time>2010-04-15T07:17:07Z</time>
      </trkpt>
      <trkpt lat="45.99753" lon="7.44015">
        <ele>3409.93</ele>
        <time>2010-04-15T07:17:19Z</time>
      </trkpt>
      <trkpt lat="45.99749" lon="7.44017">
        <ele>3413.3</ele>
        <time>2010-04-15T07:17:30Z</time>
      </trkpt>
      <trkpt lat="45.99742" lon="7.44018">
        <ele>3414.26</ele>
        <time>2010-04-15T07:17:42Z</time>
      </trkpt>
      <trkpt lat="45.99738" lon="7.44015">
        <ele>3415.22</ele>
        <time>2010-04-15T07:17:54Z</time>
      </trkpt>
      <trkpt lat="45.99733" lon="7.44006">
        <ele>3415.7</ele>
        <time>2010-04-15T07:18:07Z</time>
      </trkpt>
      <trkpt lat="45.99728" lon="7.44003">
        <ele>3417.62</ele>
        <time>2010-04-15T07:18:20Z</time>
      </trkpt>
      <trkpt lat="45.99724" lon="7.44006">
        <ele>3417.62</ele>
        <time>2010-04-15T07:18:32Z</time>
      </trkpt>
      <trkpt lat="45.99718" lon="7.44009">
        <ele>3420.03</ele>
        <time>2010-04-15T07:18:45Z</time>
      </trkpt>
      <trkpt lat="45.99713" lon="7.44012">
        <ele>3420.51</ele>
        <time>2010-04-15T07:18:53Z</time>
      </trkpt>
      <trkpt lat="45.99707" lon="7.44016">
        <ele>3420.99</ele>
        <time>2010-04-15T07:19:05Z</time>
      </trkpt>
      <trkpt lat="45.997" lon="7.4402">
        <ele>3422.43</ele>
        <time>2010-04-15T07:19:19Z</time>
      </trkpt>
      <trkpt lat="45.99693" lon="7.44022">
        <ele>3424.35</ele>
        <time>2010-04-15T07:19:33Z</time>
      </trkpt>
      <trkpt lat="45.99686" lon="7.44024">
        <ele>3425.31</ele>
        <time>2010-04-15T07:19:47Z</time>
      </trkpt>
      <trkpt lat="45.99677" lon="7.44026">
        <ele>3426.76</ele>
        <time>2010-04-15T07:20:03Z</time>
      </trkpt>
      <trkpt lat="45.9967" lon="7.44027">
        <ele>3428.68</ele>
        <time>2010-04-15T07:20:18Z</time>
      </trkpt>
      <trkpt lat="45.99666" lon="7.44027">
        <ele>3428.68</ele>
        <time>2010-04-15T07:20:22Z</time>
      </trkpt>
      <trkpt lat="45.9966" lon="7.44026">
        <ele>3429.64</ele>
        <time>2010-04-15T07:20:35Z</time>
      </trkpt>
      <trkpt lat="45.99613" lon="7.43964">
        <ele>3435</ele>
        <time>2010-04-15T09:00:00Z</time>
      </trkpt>
      <trkpt lat="45.99458" lon="7.43828">
        <ele>3462</ele>
        <time>2010-04-15T09:05:00Z</time>
      </trkpt>
      <trkpt lat="45.9937" lon="7.43799">
        <ele>3478</ele>
        <time>2010-04-15T09:10:00Z</time>
      </trkpt>
      <trkpt lat="45.99212" lon="7.43741">
        <ele>3501</ele>
        <time>2010-04-15T09:15:00Z</time>
      </trkpt>
      <trkpt lat="45.99142" lon="7.43866">
        <ele>3502</ele>
        <time>2010-04-15T09:20:00Z</time>
      </trkpt>
      <trkpt lat="45.99108" lon="7.43994">
        <ele>3561</ele>
        <time>2010-04-15T09:25:00Z</time>
      </trkpt>
      <trkpt lat="45.98964" lon="7.43917">
        <ele>3577</ele>
        <time>2010-04-15T09:30:00Z</time>
      </trkpt>
      <trkpt lat="45.9896" lon="7.44028">
        <ele>3646</ele>
        <time>2010-04-15T09:35:00Z</time>
      </trkpt>
      <trkpt lat="45.98908" lon="7.43984">
        <ele>3675</ele>
        <time>2010-04-15T09:40:00Z</time>
      </trkpt>
      <trkpt lat="45.98733" lon="7.44132">
        <ele>3685</ele>
        <time>2010-04-15T09:45:00Z</time>
      </trkpt>
      <trkpt lat="45.9866" lon="7.44588">
        <ele>3690</ele>
        <time>2010-04-15T09:50:00Z</time>
      </trkpt>
      <trkpt lat="45.98735" lon="7.45103">
        <ele>3700</ele>
        <time>2010-04-15T09:55:00Z</time>
      </trkpt>
      <trkpt lat="45.98962" lon="7.45391">
        <ele>3737</ele>
        <time>2010-04-15T09:57:00Z</time>
      </trkpt>
      <trkpt lat="45.99101" lon="7.45509">
        <ele>3778</ele>
        <time>2010-04-15T10:00:00Z</time>
      </trkpt>
      <trkpt lat="45.98673" lon="7.46332">
        <ele>3482</ele>
        <time>2010-04-15T11:00:00Z</time>
      </trkpt>
      <trkpt lat="45.98949" lon="7.47274">
        <ele>3167</ele>
        <time>2010-04-15T12:00:00Z</time>
      </trkpt>
    </trkseg>
  </trk>
</gpx>